Data for 05/13/2011

Time Sea-Level Adjusted Pressure Absolute Pressure Temperature Relative Humidity Dew Point Precipitation   
(mb) (inHg) (mb) (inHg) (C) (F) (%) (C) (F) (mm) (in)
00:01 1025 30.27 854 25.22 10.4 50.7 66 4.4 39.9 10.8 0.425
00:02 1025 30.27 854 25.22 10.4 50.7 66 4.4 39.8 10.78 0.424
00:03 1025 30.27 854 25.22 10.4 50.6 66 4.3 39.8 10.77 0.424
00:04 1025 30.27 854 25.22 10.4 50.7 64 3.9 39 10.82 0.426
00:05 1025 30.27 854 25.22 10.5 50.9 64 4 39.2 10.91 0.43
00:06 1025 30.27 854 25.22 10.5 51 64 4.2 39.5 10.93 0.43
00:07 1025 30.27 854 25.22 10.6 51 64 4 39.2 10.96 0.431
00:08 1025 30.27 854 25.22 10.6 51.1 63 3.9 39.1 10.97 0.432
00:09 1025 30.27 854 25.22 10.6 51.1 64 4.2 39.6 11 0.433
00:10 1025 30.27 854 25.22 10.6 51 65 4.2 39.6 10.97 0.432
00:11 1025 30.27 854 25.22 10.5 50.9 66 4.5 40.1 10.93 0.43
00:12 1025 30.27 854 25.22 10.5 50.9 64 4.1 39.3 10.85 0.427
00:13 1025 30.27 854 25.22 10.5 50.9 65 4.2 39.6 10.84 0.427
00:14 1025 30.27 854 25.22 10.5 50.8 65 4.2 39.6 10.83 0.426
00:15 1025 30.27 854 25.22 10.5 50.8 65 4.3 39.8 10.82 0.426
00:16 1025 30.27 854 25.22 10.5 50.8 63 3.8 38.9 10.87 0.428
00:17 1025 30.27 854 25.22 10.5 51 65 4.2 39.6 10.93 0.43
00:18 1025 30.27 854 25.22 10.5 50.9 64 4 39.2 10.94 0.431
00:19 1025 30.27 854 25.22 10.5 51 65 4.3 39.8 10.93 0.43
00:20 1025 30.27 854 25.22 10.5 51 64 4.2 39.5 10.87 0.428
00:21 1025 30.27 854 25.22 10.5 50.9 64 4.1 39.4 10.9 0.429
00:22 1024 30.24 854 25.22 10.5 50.9 64 4.1 39.4 10.85 0.427
00:23 1025 30.27 854 25.22 10.5 50.8 65 4.3 39.8 10.84 0.427
00:24 1024 30.24 854 25.22 10.4 50.8 65 4.2 39.6 10.79 0.425
00:25 1024 30.24 854 25.22 10.4 50.8 65 4.2 39.5 10.84 0.427
00:26 1024 30.24 854 25.22 10.5 50.8 64 4 39.2 10.86 0.428
00:27 1024 30.24 854 25.22 10.5 50.9 65 4.2 39.6 10.9 0.429
00:28 1024 30.24 854 25.22 10.5 50.9 65 4.2 39.6 10.9 0.429
00:29 1024 30.24 854 25.22 10.5 50.9 64 4.1 39.4 10.89 0.429
00:30 1024 30.24 854 25.22 10.5 50.9 65 4.3 39.7 10.86 0.428
00:31 1024 30.24 854 25.22 10.5 50.8 64 3.9 39 10.87 0.428
00:32 1024 30.24 853 25.19 10.5 50.9 64 4 39.2 10.87 0.428
00:33 1024 30.24 853 25.19 10.5 50.9 64 3.9 39 10.88 0.428
00:34 1024 30.24 854 25.22 10.5 50.8 64 3.9 39 10.88 0.428
00:35 1024 30.24 854 25.22 10.5 50.9 63 3.8 38.9 10.86 0.428
00:36 1024 30.24 854 25.22 10.5 50.8 64 3.9 39 10.86 0.428
00:37 1024 30.24 854 25.22 10.5 50.8 64 3.9 39.1 10.87 0.428
00:38 1024 30.24 854 25.22 10.5 50.8 64 4 39.2 10.8 0.425
00:39 1024 30.24 854 25.22 10.4 50.7 65 4.1 39.3 10.81 0.426
00:40 1024 30.24 854 25.22 10.3 50.6 65 4.1 39.4 10.75 0.423
00:41 1024 30.24 854 25.22 10.3 50.5 66 4.2 39.6 10.71 0.422
00:42 1024 30.24 854 25.22 10.2 50.4 65 3.9 39.1 10.61 0.418
00:43 1024 30.24 854 25.22 10.3 50.5 66 4.2 39.5 10.63 0.419
00:44 1024 30.24 854 25.22 10.2 50.3 67 4.4 39.9 10.56 0.416
00:45 1024 30.24 854 25.22 10.1 50.1 68 4.4 39.9 10.44 0.411
00:46 1024 30.24 854 25.22 10 50 68 4.3 39.8 10.36 0.408
00:47 1024 30.24 854 25.22 9.9 49.9 68 4.3 39.8 10.36 0.408
00:48 1024 30.24 854 25.22 9.9 49.8 69 4.5 40.1 10.32 0.406
00:49 1024 30.24 854 25.22 9.9 49.7 69 4.5 40.2 10.3 0.406
00:50 1024 30.24 854 25.22 9.8 49.7 69 4.5 40.1 10.27 0.404
00:51 1024 30.24 854 25.22 9.8 49.6 70 4.6 40.3 10.18 0.401
00:52 1024 30.24 854 25.22 9.7 49.5 70 4.6 40.2 10.15 0.4
00:53 1025 30.27 854 25.22 9.7 49.5 71 4.7 40.4 10.12 0.398
00:54 1025 30.27 854 25.22 9.7 49.4 71 4.6 40.3 10.08 0.397
00:55 1025 30.27 854 25.22 9.7 49.4 70 4.6 40.2 10.04 0.395
00:56 1025 30.27 854 25.22 9.7 49.4 71 4.6 40.3 10.06 0.396
00:57 1025 30.27 854 25.22 9.6 49.4 70 4.4 40 10.08 0.397
00:58 1025 30.27 854 25.22 9.7 49.4 69 4.3 39.7 10.06 0.396
00:59 1025 30.27 854 25.22 9.8 49.6 70 4.5 40.1 10.15 0.4
01:00 1025 30.27 854 25.22 9.8 49.6 68 4.2 39.6 10.12 0.398
01:01 1025 30.27 854 25.22 9.8 49.6 65 3.4 38.2 10.16 0.4
01:02 1025 30.27 854 25.22 9.8 49.6 64 3.2 37.8 10.1 0.398
01:03 1025 30.27 854 25.22 9.8 49.6 63 3.2 37.8 10.13 0.399
01:04 1025 30.27 854 25.22 9.8 49.6 62 2.8 37.1 10.12 0.398
01:05 1025 30.27 854 25.22 9.8 49.6 63 3.2 37.7 10.14 0.399
01:06 1025 30.27 854 25.22 9.8 49.6 64 3.3 38 10.15 0.4
01:07 1025 30.27 854 25.22 9.8 49.6 65 3.5 38.3 10.14 0.399
01:08 1025 30.27 854 25.22 9.8 49.6 64 3.3 38 10.09 0.397
01:09 1025 30.27 854 25.22 9.8 49.7 63 3.1 37.6 10.15 0.4
01:10 1025 30.27 854 25.22 9.7 49.4 64 3.2 37.7 10 0.394
01:11 1025 30.27 854 25.22 9.4 49 68 3.8 38.8 9.79 0.385
01:12 1025 30.27 854 25.22 9.2 48.5 69 3.8 38.8 9.6 0.378
01:13 1025 30.27 854 25.22 9 48.2 68 3.5 38.3 9.39 0.37
01:14 1025 30.27 854 25.22 8.9 48 69 3.5 38.2 9.28 0.365
01:15 1025 30.27 854 25.22 8.9 48 66 2.9 37.2 9.25 0.364
01:16 1025 30.27 854 25.22 9 48.2 67 3.2 37.7 9.35 0.368
01:17 1025 30.27 854 25.22 9 48.1 67 3.2 37.7 9.33 0.367
01:18 1025 30.27 854 25.22 9 48.1 67 3.3 37.9 9.33 0.367
01:19 1025 30.27 854 25.22 8.9 48 67 3.1 37.6 9.27 0.365
01:20 1025 30.27 854 25.22 9 48.1 66 3 37.4 9.26 0.365
01:21 1025 30.27 854 25.22 9 48.2 66 3 37.5 9.34 0.368
01:22 1025 30.27 854 25.22 9 48.3 68 3.5 38.3 9.43 0.371
01:23 1025 30.27 854 25.22 9 48.3 66 3.2 37.7 9.4 0.37
01:24 1025 30.27 854 25.22 9.2 48.5 66 3.2 37.8 9.54 0.376
01:25 1025 30.27 854 25.22 9.3 48.8 68 3.7 38.6 9.69 0.381
01:26 1025 30.27 854 25.22 9.5 49 68 4 39.1 9.82 0.387
01:27 1025 30.27 854 25.22 9.5 49.2 70 4.3 39.7 9.86 0.388
01:28 1025 30.27 854 25.22 9.5 49.1 70 4.3 39.8 9.86 0.388
01:29 1025 30.27 854 25.22 9.6 49.2 68 4.1 39.3 9.93 0.391
01:30 1025 30.27 854 25.22 9.6 49.4 70 4.4 39.9 10.02 0.394
01:31 1025 30.27 854 25.22 9.7 49.4 70 4.4 40 10 0.394
01:32 1025 30.27 854 25.22 9.6 49.3 68 4.1 39.4 10 0.394
01:33 1025 30.27 854 25.22 9.7 49.4 69 4.2 39.6 10.01 0.394
01:34 1025 30.27 854 25.22 9.7 49.4 69 4.2 39.6 10.02 0.394
01:35 1025 30.27 855 25.25 9.6 49.3 68 3.9 39.1 9.98 0.393
01:36 1025 30.27 855 25.25 9.7 49.4 68 4.1 39.3 10.03 0.395
01:37 1025 30.27 855 25.25 9.7 49.4 68 4.2 39.5 10.06 0.396
01:38 1025 30.27 855 25.25 9.7 49.4 69 4.2 39.5 10.02 0.394
01:39 1025 30.27 855 25.25 9.6 49.3 67 3.9 39.1 9.99 0.393
01:40 1026 30.3 855 25.25 9.6 49.3 67 3.9 39 10.02 0.394
01:41 1026 30.3 855 25.25 9.6 49.3 67 3.9 39.1 10.02 0.394
01:42 1026 30.3 855 25.25 9.6 49.4 67 3.8 38.8 9.99 0.393
01:43 1026 30.3 855 25.25 9.7 49.5 66 3.7 38.6 10.06 0.396
01:44 1026 30.3 855 25.25 9.8 49.7 66 3.8 38.9 10.14 0.399
01:45 1026 30.3 855 25.25 9.8 49.6 66 3.8 38.8 10.12 0.398
01:46 1026 30.3 855 25.25 9.8 49.6 66 3.8 38.9 10.09 0.397
01:47 1026 30.3 855 25.25 9.8 49.6 66 3.8 38.8 10.1 0.398
01:48 1026 30.3 855 25.25 9.8 49.6 66 3.8 38.8 10.1 0.398
01:49 1026 30.3 855 25.25 9.7 49.5 66 3.7 38.7 10.1 0.398
01:50 1026 30.3 855 25.25 9.8 49.6 65 3.4 38.2 10.1 0.398
01:51 1026 30.3 855 25.25 9.8 49.7 65 3.6 38.5 10.15 0.4
01:52 1026 30.3 855 25.25 9.8 49.6 66 3.7 38.7 10.16 0.4
01:53 1026 30.3 855 25.25 9.8 49.6 67 3.9 39 10.12 0.398
01:54 1026 30.3 855 25.25 9.7 49.4 67 4 39.1 10.06 0.396
01:55 1026 30.3 855 25.25 9.6 49.2 68 4 39.3 9.97 0.393
01:56 1026 30.3 855 25.25 9.5 49 67 3.6 38.4 9.88 0.389
01:57 1026 30.3 855 25.25 9.5 49.1 68 3.8 38.9 9.87 0.389
01:58 1026 30.3 855 25.25 9.4 49 68 3.8 38.9 9.83 0.387
01:59 1026 30.3 855 25.25 9.4 48.9 68 3.9 39 9.73 0.383
02:00 1026 30.3 855 25.25 9.3 48.7 68 3.7 38.7 9.69 0.381
02:01 1026 30.3 855 25.25 9.2 48.6 68 3.7 38.7 9.65 0.38
02:02 1026 30.3 855 25.25 9.2 48.5 70 3.9 39.1 9.59 0.378
02:03 1026 30.3 855 25.25 9 48.2 70 3.9 39.1 9.37 0.369
02:04 1026 30.3 855 25.25 8.8 47.9 71 3.9 39 9.2 0.362
02:05 1026 30.3 855 25.25 8.7 47.7 71 3.8 38.8 9.17 0.361
02:06 1026 30.3 855 25.25 8.8 47.8 70 3.7 38.6 9.2 0.362
02:07 1026 30.3 855 25.25 8.9 48 70 3.7 38.7 9.24 0.364
02:08 1026 30.3 855 25.25 8.9 48 70 3.7 38.7 9.25 0.364
02:09 1026 30.3 855 25.25 8.9 48 71 3.9 39 9.28 0.365
02:10 1026 30.3 855 25.25 8.9 48 72 4 39.3 9.29 0.366
02:11 1026 30.3 855 25.25 8.8 47.9 72 4 39.2 9.27 0.365
02:12 1026 30.3 855 25.25 8.9 48 71 4 39.2 9.34 0.368
02:13 1026 30.3 855 25.25 9.1 48.3 71 4.1 39.4 9.42 0.371
02:14 1026 30.3 855 25.25 9.1 48.4 71 4.1 39.5 9.45 0.372
02:15 1026 30.3 855 25.25 9.1 48.4 71 4.1 39.5 9.53 0.375
02:16 1026 30.3 855 25.25 9.1 48.4 72 4.3 39.7 9.48 0.373
02:17 1026 30.3 855 25.25 9.1 48.3 72 4.2 39.6 9.47 0.373
02:18 1026 30.3 855 25.25 9 48.3 72 4.3 39.7 9.44 0.372
02:19 1026 30.3 855 25.25 9 48.2 72 4.2 39.6 9.42 0.371
02:20 1026 30.3 855 25.25 9 48.2 72 4.3 39.7 9.43 0.371
02:21 1026 30.3 855 25.25 9.1 48.3 72 4.3 39.7 9.41 0.37
02:22 1026 30.3 855 25.25 9 48.3 72 4.2 39.6 9.42 0.371
02:23 1026 30.3 855 25.25 9.1 48.4 72 4.3 39.8 9.48 0.373
02:24 1026 30.3 855 25.25 9.1 48.3 72 4.4 39.8 9.43 0.371
02:25 1026 30.3 855 25.25 9 48.3 73 4.5 40.1 9.42 0.371
02:26 1026 30.3 855 25.25 8.9 48.1 73 4.5 40 9.36 0.369
02:27 1026 30.3 855 25.25 8.9 48 74 4.5 40.1 9.32 0.367
02:28 1026 30.3 855 25.25 8.9 48.1 74 4.5 40.2 9.34 0.368
02:29 1026 30.3 855 25.25 8.9 48.1 74 4.5 40.1 9.28 0.365
02:30 1026 30.3 855 25.25 8.9 48.1 73 4.4 40 9.29 0.366
02:31 1026 30.3 855 25.25 8.9 48 74 4.5 40.1 9.32 0.367
02:32 1026 30.3 855 25.25 8.9 48.1 74 4.5 40.1 9.34 0.368
02:33 1026 30.3 855 25.25 9 48.1 74 4.7 40.4 9.36 0.369
02:34 1026 30.3 855 25.25 8.9 48.1 75 4.7 40.4 9.33 0.367
02:35 1026 30.3 855 25.25 8.9 48 75 4.6 40.4 9.29 0.366
02:36 1026 30.3 855 25.25 8.9 48.1 75 4.7 40.4 9.3 0.366
02:37 1026 30.3 855 25.25 8.9 48.1 74 4.6 40.3 9.33 0.367
02:38 1026 30.3 855 25.25 9 48.1 75 4.7 40.5 9.33 0.367
02:39 1026 30.3 855 25.25 9 48.1 74 4.5 40.1 9.38 0.369
02:40 1026 30.3 855 25.25 9 48.2 72 4.3 39.8 9.39 0.37
02:41 1026 30.3 855 25.25 9.1 48.4 73 4.5 40.1 9.47 0.373
02:42 1026 30.3 855 25.25 9.1 48.4 72 4.4 39.9 9.46 0.372
02:43 1026 30.3 855 25.25 9.1 48.4 72 4.3 39.7 9.51 0.374
02:44 1026 30.3 855 25.25 9.1 48.4 72 4.3 39.8 9.51 0.374
02:45 1026 30.3 855 25.25 9.1 48.4 72 4.4 39.9 9.5 0.374
02:46 1026 30.3 855 25.25 9 48.3 73 4.4 40 9.46 0.372
02:47 1026 30.3 855 25.25 9 48.1 71 4 39.3 9.34 0.368
02:48 1026 30.3 855 25.25 8.9 48 72 4.1 39.4 9.27 0.365
02:49 1026 30.3 855 25.25 8.8 47.8 72 4.1 39.4 9.19 0.362
02:50 1026 30.3 855 25.25 8.7 47.6 70 3.6 38.5 9.06 0.357
02:51 1026 30.3 855 25.25 8.6 47.5 70 3.5 38.2 9.01 0.355
02:52 1026 30.3 855 25.25 8.5 47.4 70 3.4 38.2 8.96 0.353
02:53 1026 30.3 855 25.25 8.5 47.3 70 3.3 38 8.85 0.348
02:54 1026 30.3 855 25.25 8.4 47.1 70 3.2 37.8 8.76 0.345
02:55 1026 30.3 855 25.25 8.3 47 70 3.2 37.8 8.68 0.342
02:56 1026 30.3 855 25.25 8.2 46.8 69 2.9 37.1 8.61 0.339
02:57 1026 30.3 855 25.25 8.2 46.8 69 3 37.4 8.6 0.339
02:58 1026 30.3 855 25.25 8.2 46.8 71 3.2 37.7 8.61 0.339
02:59 1026 30.3 855 25.25 8.1 46.6 71 3.1 37.6 8.53 0.336
03:00 1026 30.3 855 25.25 8.1 46.6 70 3 37.4 8.53 0.336
03:01 1026 30.3 855 25.25 8.1 46.7 69 2.9 37.1 8.49 0.334
03:02 1026 30.3 855 25.25 8.2 46.7 70 3 37.4 8.58 0.338
03:03 1026 30.3 855 25.25 8.2 46.7 70 3 37.4 8.56 0.337
03:04 1026 30.3 855 25.25 8.1 46.6 70 2.9 37.2 8.54 0.336
03:05 1026 30.3 855 25.25 8.1 46.5 70 2.9 37.2 8.49 0.334
03:06 1026 30.3 855 25.25 8 46.5 71 3.1 37.6 8.45 0.333
03:07 1026 30.3 855 25.25 8 46.4 71 3.2 37.7 8.42 0.331
03:08 1026 30.3 855 25.25 8 46.4 72 3.2 37.8 8.39 0.33
03:09 1026 30.3 855 25.25 8 46.3 71 3 37.5 8.37 0.33
03:10 1026 30.3 855 25.25 8 46.4 71 3 37.5 8.39 0.33
03:11 1026 30.3 855 25.25 8 46.5 71 3.1 37.6 8.41 0.331
03:12 1026 30.3 855 25.25 8 46.5 71 3.1 37.6 8.37 0.33
03:13 1026 30.3 855 25.25 8 46.4 71 3.1 37.6 8.37 0.33
03:14 1026 30.3 855 25.25 8 46.4 71 3.1 37.7 8.37 0.33
03:15 1026 30.3 855 25.25 7.9 46.3 72 3.2 37.7 8.32 0.328
03:16 1026 30.3 855 25.25 7.9 46.2 72 3.2 37.7 8.31 0.327
03:17 1026 30.3 855 25.25 7.9 46.2 72 3.2 37.8 8.28 0.326
03:18 1026 30.3 855 25.25 7.9 46.2 72 3.2 37.8 8.27 0.326
03:19 1026 30.3 855 25.25 7.9 46.2 73 3.3 38 8.28 0.326
03:20 1026 30.3 855 25.25 7.9 46.2 73 3.3 38 8.29 0.326
03:21 1026 30.3 855 25.25 7.9 46.2 74 3.5 38.3 8.28 0.326
03:22 1026 30.3 855 25.25 7.9 46.2 74 3.5 38.3 8.23 0.324
03:23 1026 30.3 855 25.25 7.8 46.1 74 3.5 38.2 8.22 0.324
03:24 1026 30.3 855 25.25 7.8 46.1 73 3.4 38.1 8.26 0.325
03:25 1026 30.3 855 25.25 7.9 46.1 74 3.5 38.3 8.29 0.326
03:26 1026 30.3 855 25.25 7.9 46.1 74 3.5 38.4 8.29 0.326
03:27 1026 30.3 855 25.25 7.9 46.2 74 3.6 38.5 8.29 0.326
03:28 1026 30.3 855 25.25 7.9 46.2 74 3.5 38.4 8.3 0.327
03:29 1026 30.3 855 25.25 7.9 46.3 73 3.5 38.3 8.34 0.328
03:30 1026 30.3 855 25.25 8 46.4 74 3.7 38.6 8.38 0.33
03:31 1026 30.3 855 25.25 8 46.4 74 3.7 38.7 8.36 0.329
03:32 1026 30.3 855 25.25 7.9 46.3 74 3.7 38.6 8.39 0.33
03:33 1026 30.3 856 25.28 8 46.3 74 3.7 38.6 8.34 0.328
03:34 1026 30.3 856 25.28 7.9 46.3 74 3.6 38.4 8.32 0.328
03:35 1026 30.3 856 25.28 8 46.4 73 3.5 38.3 8.36 0.329
03:36 1026 30.3 856 25.28 8 46.4 73 3.5 38.2 8.39 0.33
03:37 1026 30.3 856 25.28 8 46.4 74 3.6 38.4 8.39 0.33
03:38 1026 30.3 856 25.28 8 46.4 74 3.7 38.6 8.36 0.329
03:39 1026 30.3 856 25.28 7.9 46.3 74 3.7 38.6 8.32 0.328
03:40 1026 30.3 856 25.28 7.9 46.2 74 3.6 38.4 8.32 0.328
03:41 1026 30.3 856 25.28 7.9 46.1 74 3.5 38.4 8.26 0.325
03:42 1026 30.3 856 25.28 7.8 46.1 74 3.5 38.3 8.23 0.324
03:43 1026 30.3 856 25.28 7.9 46.1 74 3.6 38.5 8.2 0.323
03:44 1026 30.3 856 25.28 7.8 46.1 75 3.6 38.5 8.21 0.323
03:45 1026 30.3 856 25.28 7.8 46.1 74 3.5 38.3 8.2 0.323
03:46 1026 30.3 856 25.28 7.8 46 74 3.4 38.1 8.22 0.324
03:47 1026 30.3 856 25.28 7.8 46.1 74 3.4 38.2 8.22 0.324
03:48 1026 30.3 856 25.28 7.9 46.2 74 3.5 38.4 8.26 0.325
03:49 1026 30.3 856 25.28 7.9 46.2 74 3.6 38.4 8.23 0.324
03:50 1026 30.3 856 25.28 7.9 46.2 74 3.5 38.4 8.27 0.326
03:51 1026 30.3 856 25.28 7.9 46.1 74 3.6 38.4 8.27 0.326
03:52 1026 30.3 856 25.28 7.9 46.2 74 3.6 38.5 8.27 0.326
03:53 1026 30.3 856 25.28 7.9 46.2 74 3.6 38.4 8.26 0.325
03:54 1026 30.3 856 25.28 7.9 46.2 74 3.5 38.4 8.3 0.327
03:55 1026 30.3 856 25.28 7.9 46.2 73 3.5 38.2 8.3 0.327
03:56 1027 30.33 856 25.28 7.9 46.2 73 3.4 38.1 8.31 0.327
03:57 1027 30.33 856 25.28 7.9 46.3 72 3.3 37.9 8.31 0.327
03:58 1027 30.33 856 25.28 8 46.4 72 3.2 37.8 8.39 0.33
03:59 1026 30.3 856 25.28 8.1 46.6 72 3.4 38.1 8.48 0.334
04:00 1027 30.33 856 25.28 8.1 46.6 73 3.6 38.4 8.49 0.334
04:01 1027 30.33 856 25.28 8.1 46.6 74 3.8 38.8 8.49 0.334
04:02 1027 30.33 856 25.28 8.1 46.5 74 3.8 38.8 8.44 0.332
04:03 1027 30.33 856 25.28 8.1 46.5 74 3.7 38.7 8.43 0.332
04:04 1027 30.33 856 25.28 8 46.4 75 3.8 38.9 8.37 0.33
04:05 1027 30.33 856 25.28 7.9 46.3 76 3.9 39 8.33 0.328
04:06 1027 30.33 856 25.28 7.8 46.1 75 3.8 38.8 8.23 0.324
04:07 1027 30.33 856 25.28 7.8 46 75 3.7 38.6 8.16 0.321
04:08 1027 30.33 856 25.28 7.7 45.9 75 3.7 38.6 8.16 0.321
04:09 1027 30.33 856 25.28 7.7 45.8 75 3.6 38.5 8.08 0.318
04:10 1027 30.33 856 25.28 7.7 45.8 76 3.7 38.6 8.01 0.315
04:11 1027 30.33 856 25.28 7.6 45.7 76 3.7 38.6 8.01 0.315
04:12 1027 30.33 856 25.28 7.5 45.5 77 3.7 38.7 7.93 0.312
04:13 1027 30.33 856 25.28 7.4 45.2 77 3.5 38.4 7.75 0.305
04:14 1027 30.33 856 25.28 7.2 44.9 77 3.4 38.2 7.61 0.3
04:15 1027 30.33 856 25.28 7 44.6 78 3.5 38.2 7.47 0.294
04:16 1027 30.33 856 25.28 6.9 44.5 79 3.5 38.3 7.35 0.289
04:17 1027 30.33 856 25.28 7 44.5 79 3.5 38.4 7.35 0.289
04:18 1027 30.33 856 25.28 7 44.6 78 3.5 38.3 7.33 0.289
04:19 1027 30.33 856 25.28 7 44.6 78 3.5 38.4 7.35 0.289
04:20 1027 30.33 856 25.28 7 44.7 78 3.5 38.4 7.39 0.291
04:21 1027 30.33 856 25.28 7.1 44.7 78 3.6 38.4 7.41 0.292
04:22 1027 30.33 856 25.28 7.1 44.9 78 3.5 38.3 7.47 0.294
04:23 1027 30.33 856 25.28 7.1 44.8 78 3.5 38.3 7.46 0.294
04:24 1027 30.33 856 25.28 7.1 44.8 78 3.5 38.4 7.36 0.29
04:25 1027 30.33 856 25.28 7 44.6 78 3.5 38.3 7.32 0.288
04:26 1027 30.33 856 25.28 7 44.5 78 3.4 38.2 7.33 0.289
04:27 1027 30.33 856 25.28 7 44.6 78 3.4 38.2 7.31 0.288
04:28 1027 30.33 856 25.28 6.9 44.4 79 3.5 38.3 7.26 0.286
04:29 1027 30.33 856 25.28 6.9 44.3 79 3.5 38.3 7.19 0.283
04:30 1027 30.33 856 25.28 6.8 44.2 79 3.5 38.2 7.18 0.283
04:31 1027 30.33 856 25.28 6.7 44.1 80 3.5 38.3 7.05 0.278
04:32 1027 30.33 856 25.28 6.6 43.9 80 3.4 38.2 7.01 0.276
04:33 1027 30.33 856 25.28 6.6 43.9 80 3.5 38.2 6.973 0.275
04:34 1027 30.33 856 25.28 6.6 43.9 80 3.4 38.1 6.951 0.274
04:35 1027 30.33 856 25.28 6.6 43.8 80 3.4 38.1 6.956 0.274
04:36 1027 30.33 856 25.28 6.7 44 80 3.4 38.1 7.07 0.278
04:37 1027 30.33 856 25.28 6.9 44.4 78 3.4 38.1 7.25 0.285
04:38 1027 30.33 856 25.28 7 44.7 77 3.3 38 7.34 0.289
04:39 1027 30.33 856 25.28 7.1 44.8 77 3.4 38 7.36 0.29
04:40 1027 30.33 856 25.28 7 44.6 77 3.3 37.9 7.33 0.289
04:41 1027 30.33 856 25.28 6.9 44.4 77 3 37.5 7.23 0.285
04:42 1027 30.33 856 25.28 6.5 43.8 77 2.8 37.1 6.945 0.273
04:43 1027 30.33 856 25.28 6.1 42.9 79 2.7 36.8 6.408 0.252
04:44 1027 30.33 856 25.28 5.7 42.2 80 2.6 36.7 6.091 0.24
04:45 1027 30.33 856 25.28 5.5 41.9 81 2.6 36.6 5.91 0.233
04:46 1027 30.33 856 25.28 5.4 41.7 82 2.5 36.6 5.751 0.226
04:47 1027 30.33 856 25.28 5.3 41.5 82 2.5 36.5 5.655 0.223
04:48 1027 30.33 856 25.28 5.3 41.5 83 2.6 36.7 5.649 0.222
04:49 1027 30.33 856 25.28 5.3 41.6 82 2.6 36.6 5.712 0.225
04:50 1027 30.33 856 25.28 5.5 41.8 82 2.6 36.6 5.82 0.229
04:51 1027 30.33 856 25.28 5.5 41.9 81 2.5 36.6 5.894 0.232
04:52 1027 30.33 856 25.28 5.5 41.9 81 2.4 36.3 5.883 0.232
04:53 1027 30.33 856 25.28 5.4 41.7 81 2.4 36.4 5.781 0.228
04:54 1027 30.33 856 25.28 5.4 41.7 81 2.4 36.4 5.713 0.225
04:55 1027 30.33 856 25.28 5.3 41.5 81 2.3 36.2 5.588 0.22
04:56 1027 30.33 856 25.28 5.2 41.3 81 2.2 35.9 5.544 0.218
04:57 1027 30.33 856 25.28 5 41 81 2.1 35.7 5.38 0.212
04:58 1027 30.33 856 25.28 4.9 40.8 83 2.2 36 5.245 0.206
04:59 1027 30.33 856 25.28 4.9 40.8 82 2.1 35.8 5.228 0.206
05:00 1027 30.33 856 25.28 4.8 40.6 83 2.2 35.9 5.166 0.203
05:01 1027 30.33 856 25.28 4.7 40.4 85 2.3 36.2 5.099 0.201
05:02 1027 30.33 856 25.28 4.7 40.5 85 2.5 36.4 5.122 0.202
05:03 1027 30.33 856 25.28 4.8 40.6 85 2.5 36.5 5.184 0.204
05:04 1027 30.33 856 25.28 4.9 40.8 84 2.5 36.5 5.286 0.208
05:05 1027 30.33 856 25.28 5.1 41.2 84 2.6 36.6 5.445 0.214
05:06 1027 30.33 856 25.28 5.3 41.6 83 2.7 36.9 5.609 0.221
05:07 1027 30.33 856 25.28 5.6 42 82 2.7 36.9 5.915 0.233
05:08 1027 30.33 856 25.28 5.8 42.4 81 2.7 36.9 6.12 0.241
05:09 1027 30.33 856 25.28 5.8 42.5 80 2.7 36.9 6.172 0.243
05:10 1027 30.33 856 25.28 5.8 42.4 81 2.7 36.9 6.132 0.241
05:11 1027 30.33 856 25.28 5.6 42.1 81 2.6 36.7 6.003 0.236
05:12 1027 30.33 856 25.28 5.4 41.8 82 2.5 36.6 5.828 0.229
05:13 1027 30.33 856 25.28 5.2 41.4 82 2.5 36.4 5.641 0.222
05:14 1027 30.33 856 25.28 5.1 41.2 83 2.5 36.5 5.535 0.218
05:15 1027 30.33 856 25.28 5 41.1 84 2.5 36.6 5.428 0.214
05:16 1027 30.33 856 25.28 5.1 41.1 85 2.7 36.9 5.428 0.214
05:17 1027 30.33 856 25.28 5.3 41.5 83 2.6 36.8 5.661 0.223
05:18 1027 30.33 856 25.28 5.5 42 81 2.5 36.5 5.853 0.23
05:19 1027 30.33 856 25.28 5.6 42 81 2.5 36.5 5.864 0.231
05:20 1027 30.33 856 25.28 5.4 41.8 80 2.3 36.2 5.752 0.226
05:21 1027 30.33 856 25.28 5.4 41.8 81 2.4 36.4 5.803 0.228
05:22 1027 30.33 856 25.28 5.5 41.9 80 2.4 36.3 5.797 0.228
05:23 1027 30.33 856 25.28 5.6 42 80 2.4 36.4 5.911 0.233
05:24 1027 30.33 856 25.28 5.6 42.2 79 2.3 36.2 5.962 0.235
05:25 1027 30.33 856 25.28 5.6 42.1 80 2.3 36.2 5.923 0.233
05:26 1027 30.33 856 25.28 5.6 42 79 2.3 36.1 5.883 0.232
05:27 1027 30.33 856 25.28 5.5 41.9 79 2.2 35.9 5.833 0.23
05:28 1027 30.33 856 25.28 5.5 41.8 79 2.1 35.7 5.787 0.228
05:29 1027 30.33 856 25.28 5.4 41.7 80 2.1 35.8 5.652 0.223
05:30 1027 30.33 856 25.28 5.4 41.7 79 2 35.7 5.686 0.224
05:31 1027 30.33 856 25.28 5.4 41.7 78 2 35.5 5.692 0.224
05:32 1027 30.33 856 25.28 5.3 41.5 79 1.9 35.4 5.607 0.221
05:33 1027 30.33 856 25.28 5.2 41.3 80 1.9 35.5 5.499 0.216
05:34 1027 30.33 856 25.28 5.2 41.3 80 2 35.6 5.522 0.217
05:35 1027 30.33 856 25.28 5.3 41.6 79 2 35.7 5.624 0.221
05:36 1027 30.33 856 25.28 5.2 41.4 80 2.1 35.7 5.556 0.219
05:37 1027 30.33 856 25.28 5.2 41.3 80 2.1 35.7 5.5 0.217
05:38 1027 30.33 856 25.28 5.1 41.2 81 2.1 35.8 5.438 0.214
05:39 1027 30.33 856 25.28 5.1 41.2 81 2.1 35.8 5.404 0.213
05:40 1027 30.33 856 25.28 5 41.1 81 2.1 35.8 5.381 0.212
05:41 1027 30.33 856 25.28 5 41 82 2.1 35.8 5.353 0.211
05:42 1027 30.33 856 25.28 4.9 40.9 82 2.1 35.8 5.262 0.207
05:43 1027 30.33 856 25.28 4.8 40.7 82 2.1 35.7 5.257 0.207
05:44 1027 30.33 856 25.28 4.8 40.7 82 2.1 35.7 5.183 0.204
05:45 1027 30.33 856 25.28 4.8 40.6 81 1.9 35.4 5.138 0.202
05:46 1027 30.33 856 25.28 4.7 40.4 82 1.8 35.3 5.036 0.198
05:47 1027 30.33 856 25.28 4.6 40.3 83 1.9 35.5 4.985 0.196
05:48 1027 30.33 856 25.28 4.6 40.3 83 2 35.6 4.991 0.196
05:49 1027 30.33 856 25.28 4.6 40.3 83 2 35.6 5.008 0.197
05:50 1027 30.33 856 25.28 4.6 40.2 83 2 35.5 4.94 0.194
05:51 1027 30.33 856 25.28 4.5 40 84 1.9 35.5 4.821 0.19
05:52 1027 30.33 856 25.28 4.3 39.8 84 1.9 35.5 4.72 0.186
05:53 1027 30.33 856 25.28 4.3 39.7 85 2 35.7 4.663 0.184
05:54 1027 30.33 856 25.28 4.4 39.9 85 2.1 35.8 4.737 0.186
05:55 1027 30.33 856 25.28 4.7 40.4 84 2.1 35.8 5.014 0.197
05:56 1027 30.33 856 25.28 4.9 40.9 82 2.2 35.9 5.286 0.208
05:57 1027 30.33 856 25.28 5.2 41.4 81 2.3 36.1 5.461 0.215
05:58 1027 30.33 856 25.28 5.3 41.6 81 2.3 36.1 5.608 0.221
05:59 1027 30.33 856 25.28 5.4 41.7 80 2.3 36.1 5.67 0.223
06:00 1027 30.33 856 25.28 5.4 41.7 80 2.3 36.1 5.755 0.227
06:01 1027 30.33 856 25.28 5.4 41.7 80 2.3 36.1 5.733 0.226
06:02 1027 30.33 856 25.28 5.3 41.6 81 2.2 36 5.682 0.224
06:03 1027 30.33 856 25.28 5.3 41.6 80 2.2 36 5.659 0.223
06:04 1027 30.33 856 25.28 5.4 41.7 80 2.2 35.9 5.75 0.226
06:05 1027 30.33 856 25.28 5.5 41.9 79 2.2 36 5.806 0.229
06:06 1027 30.33 856 25.28 5.6 42.1 79 2.2 36 5.88 0.231
06:07 1027 30.33 856 25.28 5.7 42.2 78 2.2 35.9 6.044 0.238
06:08 1027 30.33 856 25.28 5.8 42.5 78 2.2 36 6.157 0.242
06:09 1027 30.33 856 25.28 6 42.8 77 2.2 36 6.299 0.248
06:10 1027 30.33 856 25.28 6.1 43 77 2.3 36.1 6.419 0.253
06:11 1027 30.33 856 25.28 6.1 43 77 2.3 36.2 6.442 0.254
06:12 1027 30.33 856 25.28 6.2 43.1 76 2.4 36.2 6.493 0.256
06:13 1027 30.33 856 25.28 6.2 43.1 76 2.3 36.2 6.534 0.257
06:14 1027 30.33 856 25.28 6.2 43.1 77 2.4 36.3 6.545 0.258
06:15 1027 30.33 856 25.28 6.2 43.1 76 2.2 36 6.534 0.257
06:16 1027 30.33 856 25.28 6.2 43.2 76 2.3 36.2 6.552 0.258
06:17 1027 30.33 856 25.28 6.2 43.1 77 2.4 36.3 6.501 0.256
06:18 1027 30.33 856 25.28 6.1 42.9 77 2.4 36.3 6.422 0.253
06:19 1027 30.33 856 25.28 6 42.7 78 2.4 36.2 6.32 0.249
06:20 1027 30.33 856 25.28 5.8 42.4 79 2.3 36.2 6.168 0.243
06:21 1027 30.33 856 25.28 5.7 42.2 79 2.3 36.2 6.072 0.239
06:22 1027 30.33 856 25.28 5.6 42.2 79 2.3 36.2 6.055 0.238
06:23 1027 30.33 856 25.28 5.7 42.2 79 2.4 36.3 6.106 0.24
06:24 1027 30.33 856 25.28 5.7 42.3 79 2.4 36.4 6.135 0.242
06:25 1027 30.33 856 25.28 5.8 42.4 79 2.4 36.4 6.163 0.243
06:26 1027 30.33 856 25.28 5.8 42.5 79 2.6 36.6 6.18 0.243
06:27 1027 30.33 856 25.28 5.8 42.4 80 2.6 36.6 6.169 0.243
06:28 1027 30.33 856 25.28 5.8 42.4 79 2.4 36.3 6.141 0.242
06:29 1027 30.33 856 25.28 5.9 42.5 79 2.4 36.4 6.243 0.246
06:30 1027 30.33 856 25.28 5.9 42.6 79 2.6 36.6 6.266 0.247
06:31 1027 30.33 856 25.28 5.9 42.5 80 2.6 36.7 6.277 0.247
06:32 1027 30.33 856 25.28 5.9 42.5 80 2.7 36.8 6.3 0.248
06:33 1027 30.33 856 25.28 5.9 42.6 80 2.7 36.9 6.402 0.252
06:34 1027 30.33 856 25.28 6 42.8 80 2.8 37.1 6.498 0.256
06:35 1027 30.33 856 25.28 6 42.9 80 2.9 37.2 6.572 0.259
06:36 1027 30.33 856 25.28 6.1 43 80 2.9 37.1 6.617 0.261
06:37 1027 30.33 856 25.28 6.2 43.1 79 2.9 37.2 6.725 0.265
06:38 1027 30.33 856 25.28 6.3 43.3 79 2.9 37.3 6.77 0.267
06:39 1027 30.33 857 25.31 6.3 43.3 79 2.9 37.3 6.798 0.268
06:40 1027 30.33 857 25.31 6.4 43.4 80 3.1 37.6 6.917 0.272
06:41 1027 30.33 857 25.31 6.4 43.6 80 3.2 37.7 7 0.276
06:42 1027 30.33 857 25.31 6.4 43.6 79 3 37.4 7.02 0.276
06:43 1027 30.33 857 25.31 6.6 43.8 79 3.1 37.7 7.1 0.28
06:44 1027 30.33 857 25.31 6.6 43.9 78 3.1 37.6 7.17 0.282
06:45 1027 30.33 857 25.31 6.7 44 77 3 37.4 7.19 0.283
06:46 1027 30.33 857 25.31 6.7 44 78 3.2 37.7 7.2 0.283
06:47 1027 30.33 857 25.31 6.6 44 78 3.2 37.7 7.16 0.282
06:48 1027 30.33 857 25.31 6.6 43.9 78 3.1 37.6 7.14 0.281
06:49 1027 30.33 857 25.31 6.6 43.9 79 3.2 37.7 7.09 0.279
06:50 1027 30.33 857 25.31 6.6 43.8 79 3.2 37.7 7.11 0.28
06:51 1027 30.33 857 25.31 6.6 43.8 79 3.2 37.7 7.12 0.28
06:52 1027 30.33 857 25.31 6.6 43.8 79 3.2 37.7 7.15 0.281
06:53 1027 30.33 857 25.31 6.7 44 78 3 37.4 7.24 0.285
06:54 1027 30.33 857 25.31 6.7 44.1 77 3.1 37.5 7.29 0.287
06:55 1027 30.33 857 25.31 6.8 44.3 77 3.1 37.7 7.38 0.291
06:56 1027 30.33 857 25.31 6.9 44.4 78 3.3 38 7.45 0.293
06:57 1027 30.33 857 25.31 7 44.6 77 3.3 37.9 7.5 0.295
06:58 1027 30.33 857 25.31 7.1 44.7 78 3.5 38.2 7.6 0.299
06:59 1027 30.33 857 25.31 7.2 44.9 78 3.5 38.4 7.59 0.299
07:00 1027 30.33 857 25.31 7.2 45 79 3.8 38.8 7.65 0.301
07:01 1027 30.33 857 25.31 7.3 45.1 76 3.4 38.1 7.7 0.303
07:02 1027 30.33 857 25.31 7.4 45.3 77 3.6 38.5 7.77 0.306
07:03 1027 30.33 857 25.31 7.5 45.5 76 3.6 38.5 7.88 0.31
07:04 1027 30.33 857 25.31 7.6 45.6 77 3.9 39 7.98 0.314
07:05 1027 30.33 857 25.31 7.6 45.8 78 4 39.2 8.04 0.317
07:06 1028 30.36 857 25.31 7.7 45.9 78 4.2 39.5 8.15 0.321
07:07 1028 30.36 857 25.31 7.8 46.1 77 4 39.3 8.21 0.323
07:08 1028 30.36 857 25.31 7.9 46.2 77 4 39.3 8.29 0.326
07:09 1028 30.36 857 25.31 8 46.3 76 3.9 39.1 8.39 0.33
07:10 1028 30.36 857 25.31 8.1 46.5 75 4 39.2 8.47 0.333
07:11 1028 30.36 857 25.31 8.1 46.7 74 3.9 39 8.55 0.337
07:12 1028 30.36 857 25.31 8.2 46.8 73 3.7 38.6 8.62 0.339
07:13 1028 30.36 857 25.31 8.2 46.8 73 3.7 38.6 8.71 0.343
07:14 1028 30.36 857 25.31 8.3 47 73 3.8 38.8 8.78 0.346
07:15 1028 30.36 857 25.31 8.5 47.2 74 4.1 39.3 8.88 0.35
07:16 1028 30.36 857 25.31 8.5 47.4 74 4.2 39.5 8.97 0.353
07:17 1028 30.36 857 25.31 8.6 47.5 73 4.1 39.4 9.06 0.357
07:18 1028 30.36 857 25.31 8.7 47.6 74 4.4 39.9 9.2 0.362
07:19 1028 30.36 857 25.31 8.8 47.9 74 4.5 40.2 9.29 0.366
07:20 1028 30.36 857 25.31 8.9 48.1 74 4.5 40.2 9.41 0.37
07:21 1028 30.36 857 25.31 9.1 48.3 75 4.8 40.7 9.59 0.378
07:22 1028 30.36 857 25.31 9.2 48.5 73 4.6 40.3 9.68 0.381
07:23 1028 30.36 857 25.31 9.3 48.8 71 4.3 39.8 9.79 0.385
07:24 1028 30.36 857 25.31 9.4 49 70 4.2 39.6 9.86 0.388
07:25 1028 30.36 857 25.31 9.5 49.2 74 5.1 41.2 9.99 0.393
07:26 1028 30.36 857 25.31 9.6 49.3 72 4.9 40.9 10.17 0.4
07:27 1028 30.36 857 25.31 9.7 49.5 72 5 40.9 10.29 0.405
07:28 1028 30.36 857 25.31 9.8 49.7 71 4.9 40.8 10.44 0.411
07:29 1028 30.36 857 25.31 9.9 49.9 71 5 41 10.55 0.415
07:30 1028 30.36 857 25.31 10 50 70 4.7 40.5 10.7 0.421
07:31 1028 30.36 857 25.31 10.1 50.1 70 4.8 40.6 10.77 0.424
07:32 1028 30.36 857 25.31 10.1 50.3 69 4.7 40.5 10.84 0.427
07:33 1028 30.36 857 25.31 10.2 50.4 67 4.4 39.9 10.89 0.429
07:34 1028 30.36 857 25.31 10.2 50.4 68 4.6 40.3 11 0.433
07:35 1028 30.36 857 25.31 10.3 50.5 66 4.2 39.6 11 0.433
07:36 1028 30.36 857 25.31 10.4 50.6 67 4.6 40.3 11.09 0.437
07:37 1028 30.36 857 25.31 10.4 50.8 67 4.7 40.4 11.18 0.44
07:38 1028 30.36 857 25.31 10.5 50.9 68 4.9 40.8 11.22 0.442
07:39 1028 30.36 857 25.31 10.6 51 67 4.8 40.6 11.31 0.445
07:40 1028 30.36 857 25.31 10.7 51.2 66 4.7 40.4 11.35 0.447
07:41 1028 30.36 857 25.31 10.7 51.3 65 4.5 40.1 11.49 0.452
07:42 1028 30.36 857 25.31 10.8 51.4 66 4.6 40.3 11.56 0.455
07:43 1028 30.36 857 25.31 10.9 51.6 67 5 40.9 11.73 0.462
07:44 1028 30.36 857 25.31 10.9 51.7 66 5 40.9 11.79 0.464
07:45 1028 30.36 857 25.31 11.1 51.9 65 4.7 40.5 11.9 0.469
07:46 1028 30.36 857 25.31 11.1 51.9 63 4.4 39.9 11.9 0.469
07:47 1028 30.36 857 25.31 11.1 52 63 4.4 39.9 11.81 0.465
07:48 1028 30.36 857 25.31 11.1 51.9 65 4.9 40.7 11.8 0.465
07:49 1028 30.36 857 25.31 11 51.9 65 4.7 40.4 11.73 0.462
07:50 1028 30.36 857 25.31 11.1 51.9 65 4.8 40.6 11.8 0.465
07:51 1028 30.36 857 25.31 11 51.9 66 5 41 11.74 0.462
07:52 1028 30.36 857 25.31 11 51.9 66 4.9 40.8 11.64 0.458
07:53 1028 30.36 857 25.31 11.1 52 67 5.3 41.5 11.71 0.461
07:54 1028 30.36 857 25.31 11.2 52.2 64 4.7 40.5 11.87 0.467
07:55 1028 30.36 857 25.31 11.3 52.3 64 4.7 40.4 11.96 0.471
07:56 1028 30.36 857 25.31 11.3 52.3 62 4.4 39.9 12.04 0.474
07:57 1028 30.36 857 25.31 11.4 52.5 63 4.6 40.3 12.13 0.478
07:58 1028 30.36 857 25.31 11.5 52.6 63 4.7 40.4 12.22 0.481
07:59 1028 30.36 857 25.31 11.5 52.7 61 4.4 39.9 12.22 0.481
08:00 1028 30.36 857 25.31 11.6 52.9 67 5.7 42.3 12.3 0.484
08:01 1028 30.36 857 25.31 11.8 53.2 59 4.1 39.4 12.42 0.489
08:02 1028 30.36 857 25.31 11.9 53.4 60 4.4 39.9 12.49 0.492
08:03 1028 30.36 857 25.31 11.9 53.3 61 4.6 40.2 12.45 0.49
08:04 1028 30.36 857 25.31 11.9 53.3 62 4.9 40.7 12.45 0.49
08:05 1028 30.36 857 25.31 11.9 53.4 60 4.3 39.8 12.45 0.49
08:06 1028 30.36 857 25.31 11.8 53.3 62 4.8 40.7 12.41 0.489
08:07 1028 30.36 857 25.31 11.9 53.4 64 5.4 41.8 12.45 0.49
08:08 1028 30.36 857 25.31 12 53.6 63 5.3 41.5 12.51 0.493
08:09 1028 30.36 857 25.31 12 53.7 59 4.3 39.7 12.56 0.494
08:10 1028 30.36 857 25.31 12 53.6 63 5.2 41.3 12.56 0.494
08:11 1028 30.36 857 25.31 12.1 53.7 58 4.2 39.6 12.55 0.494
08:12 1028 30.36 857 25.31 12.1 53.7 63 5.3 41.5 12.59 0.496
08:13 1028 30.36 857 25.31 12.1 53.7 59 4.4 39.9 12.6 0.496
08:14 1028 30.36 857 25.31 12.1 53.8 64 5.5 41.8 12.61 0.496
08:15 1028 30.36 857 25.31 12.2 53.9 59 4.5 40 12.63 0.497
08:16 1028 30.36 857 25.31 12.2 53.9 65 5.9 42.6 12.67 0.499
08:17 1028 30.36 857 25.31 12.3 54.1 61 5.1 41.2 12.8 0.504
08:18 1028 30.36 857 25.31 12.4 54.2 58 4.4 39.9 12.9 0.508
08:19 1028 30.36 857 25.31 12.3 54.2 58 4.4 39.9 12.89 0.507
08:20 1028 30.36 857 25.31 12.4 54.3 62 5.3 41.5 12.97 0.511
08:21 1028 30.36 857 25.31 12.4 54.4 58 4.5 40.2 12.93 0.509
08:22 1028 30.36 857 25.31 12.4 54.3 59 4.8 40.6 12.89 0.507
08:23 1028 30.36 857 25.31 12.4 54.4 60 4.9 40.8 12.89 0.507
08:24 1028 30.36 857 25.31 12.5 54.4 59 4.7 40.5 12.94 0.509
08:25 1028 30.36 857 25.31 12.6 54.6 59 4.8 40.6 13.07 0.515
08:26 1028 30.36 857 25.31 12.7 54.8 58 4.8 40.6 13.25 0.522
08:27 1028 30.36 857 25.31 12.8 55 62 5.7 42.3 13.35 0.526
08:28 1028 30.36 857 25.31 12.9 55.1 58 4.9 40.8 13.4 0.528
08:29 1028 30.36 857 25.31 12.9 55.2 57 4.7 40.4 13.4 0.528
08:30 1028 30.36 857 25.31 12.9 55.2 57 4.6 40.4 13.38 0.527
08:31 1028 30.36 857 25.31 12.9 55.1 57 4.5 40.1 13.43 0.529
08:32 1028 30.36 857 25.31 12.9 55.3 59 5.2 41.3 13.45 0.53
08:33 1028 30.36 857 25.31 12.9 55.3 58 4.8 40.7 13.47 0.53
08:34 1028 30.36 857 25.31 12.9 55.2 58 5 40.9 13.36 0.526
08:35 1028 30.36 857 25.31 12.9 55.2 57 4.7 40.5 13.34 0.525
08:36 1028 30.36 857 25.31 12.9 55.3 58 5 40.9 13.45 0.53
08:37 1028 30.36 857 25.31 13.1 55.5 58 5.2 41.3 13.57 0.534
08:38 1028 30.36 857 25.31 13.2 55.7 59 5.4 41.7 13.72 0.54
08:39 1028 30.36 857 25.31 13.2 55.7 57 4.8 40.7 13.73 0.541
08:40 1028 30.36 857 25.31 13.1 55.7 56 4.7 40.5 13.67 0.538
08:41 1028 30.36 857 25.31 13.1 55.6 59 5.3 41.5 13.67 0.538
08:42 1028 30.36 857 25.31 13.3 55.9 57 5 40.9 13.83 0.544
08:43 1028 30.36 857 25.31 13.2 55.8 58 5.1 41.3 13.78 0.543
08:44 1028 30.36 857 25.31 13.2 55.8 59 5.3 41.6 13.77 0.542
08:45 1028 30.36 857 25.31 13.3 55.9 57 4.9 40.8 13.84 0.545
08:46 1028 30.36 857 25.31 13.2 55.8 57 5 41.1 13.75 0.541
08:47 1028 30.36 857 25.31 13.1 55.6 57 4.8 40.6 13.67 0.538
08:48 1028 30.36 857 25.31 13.1 55.6 58 5.2 41.4 13.64 0.537
08:49 1028 30.36 857 25.31 13.2 55.8 56 4.6 40.3 13.7 0.539
08:50 1028 30.36 857 25.31 13.4 56.1 58 5.4 41.7 13.89 0.547
08:51 1028 30.36 857 25.31 13.6 56.5 56 5.1 41.1 14.06 0.554
08:52 1028 30.36 857 25.31 13.6 56.4 54 4.6 40.3 14.11 0.556
08:53 1028 30.36 857 25.31 13.6 56.4 54 4.4 39.9 14.09 0.555
08:54 1028 30.36 857 25.31 13.6 56.5 54 4.6 40.3 14.07 0.554
08:55 1028 30.36 857 25.31 13.8 56.9 54 4.7 40.5 14.25 0.561
08:56 1028 30.36 857 25.31 14 57.1 54 4.9 40.9 14.42 0.568
08:57 1028 30.36 857 25.31 14.1 57.3 55 5.2 41.3 14.51 0.571
08:58 1028 30.36 857 25.31 14 57.3 58 5.9 42.5 14.56 0.573
08:59 1028 30.36 857 25.31 14.1 57.4 53 4.7 40.5 14.57 0.574
09:00 1028 30.36 857 25.31 14 57.1 53 4.7 40.5 14.45 0.569
09:01 1028 30.36 857 25.31 13.8 56.8 56 5.2 41.4 14.31 0.563
09:02 1028 30.36 857 25.31 13.8 56.8 55 5 41 14.27 0.562
09:03 1028 30.36 857 25.31 13.8 56.8 55 5 41.1 14.27 0.562
09:04 1028 30.36 857 25.31 13.9 57.1 56 5.4 41.8 14.39 0.567
09:05 1028 30.36 857 25.31 14 57.2 57 5.7 42.3 14.48 0.57
09:06 1028 30.36 857 25.31 14.1 57.4 55 5.1 41.3 14.61 0.575
09:07 1028 30.36 857 25.31 14 57.1 54 4.9 40.9 14.48 0.57
09:08 1028 30.36 857 25.31 13.8 56.9 59 6 42.8 14.34 0.565
09:09 1028 30.36 857 25.31 13.7 56.7 57 5.3 41.6 14.27 0.562
09:10 1028 30.36 857 25.31 13.7 56.6 55 4.9 40.9 14.18 0.558
09:11 1028 30.36 857 25.31 13.6 56.6 57 5.3 41.5 14.18 0.558
09:12 1028 30.36 857 25.31 13.8 56.9 58 5.8 42.5 14.32 0.564
09:13 1028 30.36 857 25.31 14 57.2 55 5.1 41.2 14.46 0.569
09:14 1028 30.36 857 25.31 14 57.2 57 5.8 42.4 14.5 0.571
09:15 1028 30.36 857 25.31 14 57.2 58 5.9 42.6 14.46 0.569
09:16 1028 30.36 857 25.31 13.9 57 60 6.3 43.3 14.34 0.565
09:17 1028 30.36 857 25.31 13.8 56.8 56 5.2 41.3 14.28 0.562
09:18 1028 30.36 857 25.31 13.7 56.7 57 5.6 42 14.25 0.561
09:19 1028 30.36 857 25.31 13.9 56.9 56 5.2 41.3 14.36 0.565
09:20 1028 30.36 857 25.31 13.9 57 57 5.6 42.1 14.42 0.568
09:21 1028 30.36 857 25.31 14 57.1 55 5.2 41.3 14.45 0.569
09:22 1028 30.36 857 25.31 14.1 57.3 56 5.5 41.9 14.53 0.572
09:23 1028 30.36 857 25.31 14.1 57.5 59 6.2 43.2 14.62 0.576
09:24 1027 30.33 857 25.31 14.2 57.6 54 5 41 14.63 0.576
09:25 1027 30.33 857 25.31 14.2 57.5 54 5.2 41.3 14.5 0.571
09:26 1027 30.33 857 25.31 14.2 57.5 57 5.8 42.5 14.5 0.571
09:27 1027 30.33 857 25.31 14.3 57.7 55 5.5 41.9 14.55 0.573
09:28 1027 30.33 857 25.31 14.4 57.8 55 5.6 42 14.52 0.572
09:29 1027 30.33 857 25.31 14.5 58 55 5.6 42.1 14.6 0.575
09:30 1027 30.33 857 25.31 14.6 58.2 57 6.3 43.3 14.61 0.575
09:31 1027 30.33 857 25.31 14.5 58.1 54 5.4 41.8 14.62 0.576
09:32 1027 30.33 857 25.31 14.4 57.9 56 5.7 42.3 14.6 0.575
09:33 1027 30.33 857 25.31 14.4 57.8 52 4.8 40.6 14.67 0.578
09:34 1027 30.33 857 25.31 14.4 57.9 62 7.3 45.2 14.72 0.58
09:35 1027 30.33 857 25.31 14.5 58.1 57 6.2 43.1 14.78 0.582
09:36 1027 30.33 857 25.31 14.7 58.4 58 6.4 43.6 14.86 0.585
09:37 1027 30.33 857 25.31 14.8 58.6 53 5.5 41.9 15.04 0.592
09:38 1027 30.33 857 25.31 14.9 58.7 57 6.6 43.8 15.17 0.597
09:39 1027 30.33 857 25.31 14.9 58.8 55 6.1 43 15.17 0.597
09:40 1027 30.33 857 25.31 14.8 58.7 54 5.7 42.3 15.15 0.596
09:41 1027 30.33 857 25.31 14.9 58.8 54 5.7 42.2 15.05 0.593
09:42 1027 30.33 857 25.31 14.8 58.6 54 5.7 42.3 14.89 0.586
09:43 1027 30.33 857 25.31 14.8 58.7 57 6.4 43.4 14.9 0.587
09:44 1027 30.33 857 25.31 14.9 58.9 52 5.3 41.5 15.07 0.593
09:45 1027 30.33 857 25.31 14.8 58.6 54 5.7 42.3 15.03 0.592
09:46 1027 30.33 857 25.31 14.7 58.5 52 5.1 41.2 15.06 0.593
09:47 1027 30.33 857 25.31 14.6 58.3 52 4.9 40.8 15.01 0.591
09:48 1027 30.33 857 25.31 14.5 58.1 55 5.6 42 14.92 0.587
09:49 1027 30.33 857 25.31 14.5 58.1 53 5.1 41.1 14.95 0.589
09:50 1027 30.33 857 25.31 14.5 58.1 53 5.2 41.3 14.89 0.586
09:51 1027 30.33 856 25.28 14.5 58 53 5 40.9 14.86 0.585
09:52 1027 30.33 857 25.31 14.4 57.9 53 5 40.9 14.81 0.583
09:53 1027 30.33 857 25.31 14.4 57.9 57 6 42.7 14.79 0.582
09:54 1027 30.33 857 25.31 14.4 57.9 55 5.5 41.9 14.76 0.581
09:55 1027 30.33 857 25.31 14.4 57.9 54 5.2 41.4 14.83 0.584
09:56 1027 30.33 857 25.31 14.6 58.2 53 5.3 41.5 14.9 0.587
09:57 1027 30.33 856 25.28 14.7 58.5 53 5.4 41.7 15.07 0.593
09:58 1027 30.33 856 25.28 14.7 58.5 57 6.4 43.6 15.15 0.596
09:59 1027 30.33 856 25.28 14.7 58.5 53 5.4 41.8 15.2 0.598
10:00 1027 30.33 857 25.31 14.7 58.5 54 5.7 42.2 15.1 0.594
10:01 1027 30.33 856 25.28 14.8 58.6 54 5.5 41.9 15.16 0.597
10:02 1027 30.33 856 25.28 14.8 58.6 56 6.2 43.1 15.12 0.595
10:03 1027 30.33 856 25.28 14.8 58.6 57 6.5 43.7 15.19 0.598
10:04 1027 30.33 856 25.28 14.9 58.8 54 5.7 42.3 15.3 0.602
10:05 1027 30.33 856 25.28 14.8 58.7 57 6.5 43.6 15.19 0.598
10:06 1027 30.33 856 25.28 14.8 58.6 53 5.4 41.8 15.18 0.598
10:07 1027 30.33 856 25.28 14.8 58.7 53 5.5 41.8 15.18 0.598
10:08 1027 30.33 856 25.28 14.8 58.7 52 5 41 15.25 0.6
10:09 1027 30.33 856 25.28 14.8 58.6 55 5.9 42.5 15.23 0.6
10:10 1027 30.33 856 25.28 14.8 58.7 55 6.1 42.9 15.27 0.601
10:11 1027 30.33 856 25.28 14.9 58.7 55 6.1 42.9 15.27 0.601
10:12 1027 30.33 856 25.28 15 58.9 57 6.7 44.1 15.33 0.604
10:13 1027 30.33 856 25.28 15.1 59.1 52 5.5 41.9 15.45 0.608
10:14 1027 30.33 856 25.28 15.1 59.1 56 6.5 43.8 15.32 0.603
10:15 1027 30.33 856 25.28 15 59.1 52 5.4 41.7 15.24 0.6
10:16 1027 30.33 856 25.28 15.1 59.1 52 5.5 41.9 15.21 0.599
10:17 1027 30.33 856 25.28 15.1 59.1 57 6.6 44 15.23 0.6
10:18 1027 30.33 856 25.28 15.1 59.1 52 5.3 41.6 15.28 0.602
10:19 1027 30.33 856 25.28 15.1 59.3 51 5.3 41.5 15.25 0.6
10:20 1027 30.33 856 25.28 15.2 59.3 57 6.7 44 15.21 0.599
10:21 1027 30.33 856 25.28 15.2 59.4 52 5.4 41.7 15.25 0.6
10:22 1027 30.33 856 25.28 15.3 59.5 55 6.3 43.4 15.34 0.604
10:23 1027 30.33 856 25.28 15.5 59.8 50 5 41.1 15.51 0.611
10:24 1027 30.33 856 25.28 15.6 60.2 51 5.7 42.3 15.75 0.62
10:25 1027 30.33 856 25.28 15.7 60.3 58 7.5 45.6 15.77 0.621
10:26 1027 30.33 856 25.28 15.7 60.2 59 7.7 45.9 15.76 0.62
10:27 1027 30.33 856 25.28 15.6 60.1 53 6.1 43 15.72 0.619
10:28 1027 30.33 856 25.28 15.6 60.2 51 5.7 42.2 15.65 0.616
10:29 1027 30.33 856 25.28 15.6 60 55 6.6 43.8 15.63 0.615
10:30 1027 30.33 856 25.28 15.6 60 54 6.3 43.4 15.65 0.616
10:31 1027 30.33 856 25.28 15.7 60.2 52 5.9 42.6 15.73 0.619
10:32 1027 30.33 856 25.28 15.6 60.1 55 6.8 44.2 15.73 0.619
10:33 1027 30.33 856 25.28 15.6 60.1 50 5.4 41.7 15.74 0.62
10:34 1027 30.33 856 25.28 15.5 59.9 53 6.2 43.2 15.68 0.617
10:35 1027 30.33 856 25.28 15.5 60 53 6 42.8 15.72 0.619
10:36 1027 30.33 856 25.28 15.6 60 50 5.4 41.7 15.66 0.617
10:37 1027 30.33 856 25.28 15.6 60 49 5 40.9 15.59 0.614
10:38 1027 30.33 856 25.28 15.6 60.1 54 6.3 43.4 15.66 0.617
10:39 1027 30.33 856 25.28 15.6 60.1 50 5.4 41.7 15.66 0.617
10:40 1027 30.33 856 25.28 15.5 59.9 54 6.4 43.5 15.56 0.613
10:41 1027 30.33 856 25.28 15.6 60 52 5.9 42.6 15.72 0.619
10:42 1027 30.33 856 25.28 15.7 60.2 53 6.2 43.2 15.79 0.622
10:43 1027 30.33 856 25.28 15.7 60.2 56 6.9 44.4 15.87 0.625
10:44 1027 30.33 856 25.28 15.7 60.2 55 6.9 44.3 15.97 0.629
10:45 1027 30.33 856 25.28 15.8 60.4 50 5.5 41.8 16.04 0.631
10:46 1027 30.33 856 25.28 15.7 60.3 52 5.9 42.6 16.08 0.633
10:47 1027 30.33 856 25.28 15.7 60.2 50 5.3 41.6 16.05 0.632
10:48 1027 30.33 856 25.28 15.6 60.1 57 7.1 44.8 16.01 0.63
10:49 1027 30.33 856 25.28 15.6 60.2 50 5.3 41.6 16.04 0.631
10:50 1027 30.33 856 25.28 15.6 60.2 48 4.8 40.6 15.97 0.629
10:51 1027 30.33 856 25.28 15.7 60.2 48 4.9 40.9 15.99 0.63
10:52 1027 30.33 856 25.28 15.7 60.3 50 5.5 41.9 16.12 0.635
10:53 1027 30.33 856 25.28 15.7 60.3 55 6.8 44.2 16.19 0.637
10:54 1027 30.33 856 25.28 15.9 60.6 48 5 41 16.32 0.643
10:55 1027 30.33 856 25.28 16 60.8 50 5.6 42.1 16.31 0.642
10:56 1027 30.33 856 25.28 16 60.8 56 7.5 45.4 16.34 0.643
10:57 1027 30.33 856 25.28 16.2 61.1 53 6.6 43.9 16.52 0.65
10:58 1027 30.33 856 25.28 16.3 61.4 49 5.7 42.3 16.61 0.654
10:59 1027 30.33 856 25.28 16.3 61.4 51 6.4 43.5 16.69 0.657
11:00 1027 30.33 856 25.28 16.5 61.8 53 7.2 44.9 16.75 0.659
11:01 1027 30.33 856 25.28 16.6 61.9 49 6 42.7 16.76 0.66
11:02 1027 30.33 856 25.28 16.6 61.9 55 7.7 45.8 16.71 0.658
11:03 1027 30.33 856 25.28 16.5 61.7 52 6.8 44.3 16.55 0.652
11:04 1027 30.33 856 25.28 16.4 61.6 51 6.4 43.5 16.63 0.655
11:05 1027 30.33 856 25.28 16.4 61.6 48 5.6 42 16.71 0.658
11:06 1027 30.33 856 25.28 16.3 61.4 48 5.4 41.7 16.66 0.656
11:07 1027 30.33 856 25.28 16.3 61.3 52 6.6 44 16.72 0.658
11:08 1027 30.33 856 25.28 16.4 61.5 46 4.9 40.8 16.71 0.658
11:09 1027 30.33 856 25.28 16.4 61.6 48 5.6 42 16.7 0.657
11:10 1027 30.33 856 25.28 16.5 61.7 50 6.1 43.1 16.66 0.656
11:11 1027 30.33 856 25.28 16.4 61.5 46 4.9 40.8 16.57 0.652
11:12 1027 30.33 856 25.28 16.2 61.1 51 6.1 43 16.43 0.647
11:13 1027 30.33 856 25.28 16.1 61 51 6.1 43 16.45 0.648
11:14 1027 30.33 856 25.28 16.3 61.3 47 5.2 41.3 16.53 0.651
11:15 1027 30.33 856 25.28 16.5 61.7 53 6.9 44.4 16.7 0.657
11:16 1027 30.33 856 25.28 16.7 62.1 47 5.4 41.7 16.94 0.667
11:17 1027 30.33 856 25.28 16.8 62.3 48 5.9 42.5 17.11 0.674
11:18 1027 30.33 856 25.28 16.9 62.5 46 5.2 41.4 17.09 0.673
11:19 1027 30.33 856 25.28 17 62.7 46 5.3 41.5 17.25 0.679
11:20 1027 30.33 856 25.28 17.1 62.8 51 7 44.6 17.23 0.678
11:21 1027 30.33 856 25.28 17.1 62.7 44 4.9 40.9 17.21 0.678
11:22 1027 30.33 856 25.28 17 62.5 46 5.5 41.9 17.07 0.672
11:23 1027 30.33 856 25.28 16.9 62.4 49 6.2 43.1 16.99 0.669
11:24 1027 30.33 856 25.28 16.9 62.4 43 4.5 40.1 17.08 0.672
11:25 1027 30.33 856 25.28 17 62.5 49 6.4 43.5 17.1 0.673
11:26 1027 30.33 856 25.28 17 62.5 52 7.1 44.8 17.16 0.676
11:27 1027 30.33 856 25.28 17.1 62.7 48 6.2 43.1 17.32 0.682
11:28 1027 30.33 856 25.28 17.2 62.9 48 6.2 43.2 17.4 0.685
11:29 1027 30.33 856 25.28 17.2 62.9 45 5.3 41.5 17.3 0.681
11:30 1027 30.33 856 25.28 17.1 62.7 45 5.2 41.3 17.2 0.677
11:31 1027 30.33 856 25.28 16.8 62.3 45 4.9 40.8 17.07 0.672
11:32 1027 30.33 856 25.28 16.7 62.1 45 4.8 40.7 16.93 0.667
11:33 1027 30.33 856 25.28 16.6 61.9 53 7 44.6 16.81 0.662
11:34 1027 30.33 856 25.28 16.6 62 45 4.8 40.7 16.94 0.667
11:35 1027 30.33 856 25.28 16.7 62.1 47 5.6 42.1 17.06 0.672
11:36 1027 30.33 856 25.28 16.7 62.1 50 6.3 43.3 17.14 0.675
11:37 1027 30.33 856 25.28 16.7 62.1 49 6.1 43 17.2 0.677
11:38 1027 30.33 856 25.28 16.9 62.3 45 4.9 40.8 17.33 0.682
11:39 1027 30.33 856 25.28 17 62.6 50 6.6 43.8 17.42 0.686
11:40 1027 30.33 856 25.28 17 62.7 46 5.5 41.9 17.48 0.688
11:41 1027 30.33 856 25.28 16.9 62.4 48 5.8 42.5 17.35 0.683
11:42 1027 30.33 856 25.28 17 62.6 45 5 41.1 17.42 0.686
11:43 1027 30.33 856 25.28 17.2 62.9 44 5 41 17.49 0.689
11:44 1027 30.33 856 25.28 17.4 63.2 50 6.8 44.3 17.66 0.695
11:45 1027 30.33 856 25.28 17.6 63.6 51 7.5 45.4 17.86 0.703
11:46 1027 30.33 856 25.28 17.7 63.8 52 7.7 45.9 17.83 0.702
11:47 1027 30.33 856 25.28 17.6 63.6 44 5.3 41.5 17.7 0.697
11:48 1027 30.33 856 25.28 17.3 63.1 45 5.2 41.4 17.4 0.685
11:49 1026 30.3 856 25.28 17.1 62.9 44 4.9 40.8 17.31 0.681
11:50 1026 30.3 856 25.28 17.1 62.9 45 5.3 41.5 17.36 0.683
11:51 1026 30.3 856 25.28 17.2 63 49 6.6 43.8 17.53 0.69
11:52 1026 30.3 856 25.28 17.5 63.4 42 4.7 40.4 17.75 0.699
11:53 1026 30.3 856 25.28 17.6 63.7 41 4.4 40 17.76 0.699
11:54 1026 30.3 856 25.28 17.5 63.6 49 6.9 44.4 17.68 0.696
11:55 1026 30.3 856 25.28 17.6 63.7 48 6.5 43.7 17.71 0.697
11:56 1026 30.3 856 25.28 17.6 63.6 44 5.4 41.7 17.73 0.698
11:57 1026 30.3 856 25.28 17.6 63.6 44 5.4 41.7 17.69 0.696
11:58 1026 30.3 856 25.28 17.6 63.6 42 4.8 40.6 17.78 0.7
11:59 1026 30.3 856 25.28 17.7 63.8 45 5.6 42 17.92 0.706
12:00 1026 30.3 856 25.28 17.8 64 44 5.4 41.7 18 0.709
12:01 1026 30.3 856 25.28 17.9 64.3 41 4.6 40.2 18.15 0.715
12:02 1026 30.3 856 25.28 17.8 64.1 45 5.9 42.7 17.97 0.707
12:03 1026 30.3 856 25.28 17.7 63.9 48 6.6 43.9 18.08 0.712
12:04 1026 30.3 856 25.28 17.8 64.1 47 6.5 43.7 18.12 0.713
12:05 1026 30.3 856 25.28 17.8 64 42 4.7 40.5 18.02 0.709
12:06 1026 30.3 856 25.28 17.6 63.7 42 4.7 40.4 17.81 0.701
12:07 1026 30.3 856 25.28 17.5 63.5 40 4 39.2 17.8 0.701
12:08 1026 30.3 856 25.28 17.6 63.7 42 4.7 40.4 17.89 0.704
12:09 1026 30.3 856 25.28 17.6 63.7 46 5.9 42.7 17.87 0.704
12:10 1026 30.3 856 25.28 17.6 63.8 40 4 39.1 17.96 0.707
12:11 1026 30.3 855 25.25 17.7 63.9 44 5.4 41.7 17.94 0.706
12:12 1026 30.3 856 25.28 17.8 64 46 6.1 42.9 18.13 0.714
12:13 1026 30.3 856 25.28 17.9 64.3 45 6 42.9 18.34 0.722
12:14 1026 30.3 856 25.28 18 64.4 43 5.3 41.5 18.45 0.726
12:15 1026 30.3 855 25.25 18.1 64.6 40 4.5 40.1 18.54 0.73
12:16 1026 30.3 855 25.25 17.9 64.2 39 3.8 38.8 18.44 0.726
12:17 1026 30.3 855 25.25 17.9 64.2 42 4.9 40.8 18.54 0.73
12:18 1026 30.3 855 25.25 18.1 64.6 41 4.8 40.6 18.79 0.74
12:19 1026 30.3 855 25.25 18.3 65 40 4.6 40.4 18.98 0.747
12:20 1026 30.3 855 25.25 18.2 64.7 43 5.6 42.1 18.64 0.734
12:21 1026 30.3 855 25.25 17.9 64.2 41 4.6 40.4 18.23 0.718
12:22 1026 30.3 855 25.25 17.8 64 50 7.4 45.2 18.17 0.715
12:23 1026 30.3 855 25.25 17.9 64.2 40 4.2 39.6 18.3 0.72
12:24 1026 30.3 855 25.25 17.9 64.2 46 6.2 43.2 18.27 0.719
12:25 1026 30.3 855 25.25 17.9 64.2 48 6.9 44.4 18.26 0.719
12:26 1026 30.3 855 25.25 18 64.3 47 6.6 43.9 18.24 0.718
12:27 1026 30.3 855 25.25 18 64.3 42 4.9 40.9 18.25 0.719
12:28 1026 30.3 855 25.25 18.1 64.5 41 4.9 40.8 18.39 0.724
12:29 1026 30.3 855 25.25 18.1 64.6 39 4.1 39.4 18.45 0.726
12:30 1026 30.3 855 25.25 18.2 64.7 47 6.9 44.5 18.5 0.728
12:31 1026 30.3 855 25.25 18.3 64.9 39 4.2 39.5 18.63 0.733
12:32 1026 30.3 855 25.25 18.5 65.2 43 5.9 42.6 18.7 0.736
12:33 1026 30.3 855 25.25 18.5 65.4 38 4.1 39.4 18.85 0.742
12:34 1026 30.3 855 25.25 18.5 65.3 40 4.8 40.7 18.64 0.734
12:35 1026 30.3 855 25.25 18.4 65.1 44 6.1 43 18.62 0.733
12:36 1026 30.3 855 25.25 18.4 65 37 3.5 38.4 18.58 0.731
12:37 1026 30.3 855 25.25 18.3 64.9 40 4.5 40.1 18.46 0.727
12:38 1026 30.3 855 25.25 18.2 64.7 37 3.4 38.1 18.51 0.729
12:39 1026 30.3 855 25.25 18.2 64.7 38 3.9 38.9 18.49 0.728
12:40 1026 30.3 855 25.25 18 64.5 40 4.3 39.7 18.3 0.72
12:41 1026 30.3 855 25.25 17.9 64.1 48 6.9 44.4 18.15 0.715
12:42 1026 30.3 855 25.25 17.9 64.1 38 3.6 38.5 18.15 0.715
12:43 1026 30.3 855 25.25 18 64.3 43 5.4 41.6 18.39 0.724
12:44 1026 30.3 855 25.25 18.1 64.6 39 4.1 39.4 18.44 0.726
12:45 1026 30.3 855 25.25 18.1 64.6 38 3.8 38.8 18.48 0.728
12:46 1026 30.3 855 25.25 18.1 64.5 37 3.1 37.6 18.39 0.724
12:47 1026 30.3 855 25.25 18 64.5 43 5.4 41.7 18.41 0.725
12:48 1026 30.3 855 25.25 18.2 64.8 43 5.6 42 18.68 0.735
12:49 1026 30.3 855 25.25 18.4 65.2 38 3.8 38.9 18.81 0.741
12:50 1026 30.3 855 25.25 18.4 65.1 38 3.9 39 18.82 0.741
12:51 1026 30.3 855 25.25 18.3 65 41 4.9 40.7 18.78 0.739
12:52 1026 30.3 855 25.25 18.3 64.9 37 3.6 38.4 18.77 0.739
12:53 1026 30.3 855 25.25 18.4 65.2 43 5.9 42.6 18.99 0.748
12:54 1026 30.3 855 25.25 18.6 65.5 40 4.8 40.6 19.13 0.753
12:55 1026 30.3 855 25.25 18.9 66 36 3.8 38.8 19.34 0.761
12:56 1026 30.3 855 25.25 19 66.1 40 5.1 41.2 19.31 0.76
12:57 1026 30.3 855 25.25 18.9 66 42 5.7 42.2 19.22 0.757
12:58 1026 30.3 855 25.25 18.9 66 39 4.8 40.7 19.26 0.758
12:59 1026 30.3 855 25.25 18.8 65.8 43 6 42.9 19.12 0.753
13:00 1026 30.3 855 25.25 18.7 65.6 41 5.4 41.7 19 0.748
13:01 1026 30.3 855 25.25 18.6 65.4 43 5.7 42.3 18.91 0.744
13:02 1026 30.3 855 25.25 18.7 65.7 40 4.9 40.8 19.1 0.752
13:03 1026 30.3 855 25.25 18.8 65.8 39 4.7 40.4 19.26 0.758
13:04 1026 30.3 855 25.25 18.9 66 41 5.6 42 19.33 0.761
13:05 1026 30.3 855 25.25 19 66.3 36 3.8 38.9 19.47 0.767
13:06 1026 30.3 855 25.25 19 66.2 37 3.9 39.1 19.39 0.763
13:07 1026 30.3 855 25.25 18.9 66 38 4.5 40.1 19.23 0.757
13:08 1026 30.3 855 25.25 18.7 65.7 37 3.9 39 19.1 0.752
13:09 1026 30.3 855 25.25 18.6 65.5 38 4.1 39.3 18.9 0.744
13:10 1025 30.27 855 25.25 18.5 65.4 42 5.6 42 18.95 0.746
13:11 1025 30.27 855 25.25 18.7 65.6 39 4.4 40 19.05 0.75
13:12 1026 30.3 855 25.25 18.7 65.7 38 4.1 39.4 19.21 0.756
13:13 1026 30.3 855 25.25 18.9 66 40 5.3 41.6 19.39 0.763
13:14 1025 30.27 855 25.25 19.2 66.5 39 5.1 41.2 19.61 0.772
13:15 1026 30.3 855 25.25 19.4 66.8 43 6.6 43.9 19.75 0.778
13:16 1026 30.3 855 25.25 19.5 67 41 5.9 42.6 19.77 0.778
13:17 1025 30.27 855 25.25 19.2 66.6 35 3.6 38.4 19.41 0.764
13:18 1025 30.27 855 25.25 19 66.1 37 4 39.3 19.22 0.757
13:19 1025 30.27 855 25.25 18.9 65.9 37 4.1 39.3 19.09 0.752
13:20 1025 30.27 855 25.25 18.8 65.9 38 4.2 39.6 19.09 0.752
13:21 1025 30.27 855 25.25 18.8 65.8 35 3.1 37.6 19.1 0.752
13:22 1025 30.27 855 25.25 18.7 65.6 42 5.7 42.2 18.95 0.746
13:23 1025 30.27 855 25.25 18.6 65.6 39 4.4 39.9 19.07 0.751
13:24 1025 30.27 855 25.25 18.7 65.7 38 4.3 39.8 19.19 0.756
13:25 1025 30.27 855 25.25 18.7 65.6 39 4.5 40.2 19.02 0.749
13:26 1025 30.27 855 25.25 18.6 65.5 39 4.4 39.9 18.95 0.746
13:27 1025 30.27 855 25.25 18.6 65.4 43 5.8 42.4 18.94 0.746
13:28 1025 30.27 855 25.25 18.7 65.7 38 4.4 40 19.13 0.753
13:29 1025 30.27 855 25.25 18.9 66 44 6.4 43.4 19.3 0.76
13:30 1025 30.27 855 25.25 19 66.3 44 6.7 44 19.41 0.764
13:31 1025 30.27 855 25.25 19.2 66.5 34 2.9 37.3 19.49 0.767
13:32 1025 30.27 855 25.25 19 66.2 33 2.4 36.4 19.27 0.759
13:33 1025 30.27 855 25.25 18.8 65.9 34 2.9 37.2 19.09 0.752
13:34 1025 30.27 855 25.25 18.7 65.7 44 6.3 43.3 19.04 0.75
13:35 1025 30.27 855 25.25 18.8 65.8 36 3.7 38.7 19.17 0.755
13:36 1025 30.27 855 25.25 18.8 65.8 42 5.7 42.2 19.12 0.753
13:37 1025 30.27 855 25.25 18.8 65.8 41 5.3 41.6 19.18 0.755
13:38 1025 30.27 855 25.25 18.8 65.8 40 4.9 40.9 19.19 0.756
13:39 1025 30.27 855 25.25 18.8 65.8 39 4.6 40.2 19.19 0.756
13:40 1025 30.27 854 25.22 18.8 65.8 44 6.3 43.3 19.26 0.758
13:41 1025 30.27 854 25.22 18.8 65.9 39 4.6 40.2 19.28 0.759
13:42 1025 30.27 854 25.22 18.7 65.7 41 5.5 41.9 19.25 0.758
13:43 1025 30.27 854 25.22 18.8 65.9 39 4.7 40.5 19.34 0.761
13:44 1025 30.27 854 25.22 18.8 65.8 42 5.7 42.2 19.3 0.76
13:45 1025 30.27 855 25.25 18.8 65.9 36 3.8 38.8 19.37 0.763
13:46 1025 30.27 855 25.25 18.8 65.8 37 4.1 39.4 19.16 0.754
13:47 1025 30.27 855 25.25 18.7 65.7 39 4.8 40.6 19.12 0.753
13:48 1025 30.27 855 25.25 18.7 65.6 39 4.6 40.3 19.13 0.753
13:49 1025 30.27 855 25.25 18.7 65.6 38 4.4 39.9 19.12 0.753
13:50 1025 30.27 855 25.25 18.8 65.8 37 4 39.2 19.25 0.758
13:51 1025 30.27 855 25.25 18.8 65.9 41 5.5 41.9 19.23 0.757
13:52 1025 30.27 854 25.22 18.9 66 37 4 39.2 19.24 0.757
13:53 1025 30.27 854 25.22 18.9 66.1 40 5.2 41.4 19.29 0.759
13:54 1025 30.27 855 25.25 18.9 66 43 6.1 43.1 19.26 0.758
13:55 1025 30.27 855 25.25 19 66.1 38 4.3 39.8 19.36 0.762
13:56 1025 30.27 855 25.25 18.9 66.1 42 6 42.7 19.26 0.758
13:57 1025 30.27 855 25.25 19 66.1 35 3.4 38.1 19.28 0.759
13:58 1025 30.27 854 25.22 18.8 65.8 44 6.5 43.7 19.09 0.752
13:59 1025 30.27 854 25.22 18.9 66 38 4.4 39.9 19.28 0.759
14:00 1025 30.27 855 25.25 18.9 66.1 41 5.6 42.1 19.25 0.758
14:01 1025 30.27 855 25.25 19 66.1 42 5.9 42.6 19.3 0.76
14:02 1025 30.27 854 25.22 19 66.2 36 3.7 38.7 19.29 0.759
14:03 1025 30.27 854 25.22 18.8 65.9 43 6.1 43 19.18 0.755
14:04 1025 30.27 854 25.22 18.8 65.8 40 5.1 41.3 19.21 0.756
14:05 1025 30.27 854 25.22 18.7 65.7 39 4.7 40.5 19.18 0.755
14:06 1025 30.27 854 25.22 18.8 65.9 37 3.9 39 19.35 0.762
14:07 1025 30.27 854 25.22 19 66.1 35 3.2 37.8 19.44 0.765
14:08 1025 30.27 854 25.22 19 66.1 36 3.6 38.5 19.37 0.763
14:09 1025 30.27 855 25.25 19 66.1 38 4.6 40.2 19.46 0.766
14:10 1025 30.27 855 25.25 18.9 66.1 37 4.1 39.4 19.3 0.76
14:11 1025 30.27 854 25.22 18.9 65.9 37 4 39.1 19.22 0.757
14:12 1025 30.27 854 25.22 18.9 66.1 39 4.6 40.3 19.41 0.764
14:13 1025 30.27 854 25.22 19 66.3 43 6.2 43.1 19.51 0.768
14:14 1025 30.27 854 25.22 19.3 66.7 39 5 41 19.75 0.778
14:15 1025 30.27 854 25.22 19.2 66.5 42 6.2 43.2 19.61 0.772
14:16 1025 30.27 854 25.22 19.1 66.4 33 2.8 37.1 19.48 0.767
14:17 1025 30.27 854 25.22 19 66.1 38 4.5 40.1 19.39 0.763
14:18 1025 30.27 854 25.22 19 66.3 40 5.2 41.3 19.54 0.769
14:19 1025 30.27 854 25.22 19.2 66.5 40 5.5 41.8 19.56 0.77
14:20 1025 30.27 854 25.22 19.2 66.5 38 4.6 40.2 19.45 0.766
14:21 1025 30.27 854 25.22 19 66.1 43 6.4 43.5 19.37 0.763
14:22 1025 30.27 854 25.22 19 66.1 38 4.4 39.9 19.4 0.764
14:23 1025 30.27 854 25.22 19 66.2 36 3.7 38.7 19.44 0.765
14:24 1025 30.27 854 25.22 19 66.1 37 4 39.2 19.38 0.763
14:25 1025 30.27 854 25.22 18.9 66.1 39 4.7 40.4 19.38 0.763
14:26 1025 30.27 854 25.22 19 66.2 37 4.1 39.4 19.55 0.77
14:27 1025 30.27 854 25.22 19.1 66.3 42 5.9 42.7 19.58 0.771
14:28 1025 30.27 854 25.22 19.2 66.6 38 4.6 40.3 19.83 0.781
14:29 1025 30.27 854 25.22 19.5 67 39 5.3 41.6 19.93 0.785
14:30 1025 30.27 854 25.22 19.6 67.2 37 4.7 40.5 19.99 0.787
14:31 1025 30.27 854 25.22 19.5 67 34 3.5 38.4 19.81 0.78
14:32 1025 30.27 854 25.22 19.2 66.6 44 6.9 44.4 19.55 0.77
14:33 1025 30.27 854 25.22 19.2 66.5 37 4.1 39.5 19.58 0.771
14:34 1025 30.27 854 25.22 19.1 66.3 38 4.7 40.5 19.52 0.769
14:35 1025 30.27 854 25.22 19.1 66.4 36 3.8 38.9 19.6 0.772
14:36 1025 30.27 854 25.22 19.1 66.4 36 3.6 38.5 19.51 0.768
14:37 1025 30.27 854 25.22 19 66.3 39 5 41 19.38 0.763
14:38 1025 30.27 854 25.22 19 66.2 43 6.2 43.1 19.27 0.759
14:39 1025 30.27 854 25.22 19 66.3 37 4 39.1 19.43 0.765
14:40 1025 30.27 854 25.22 19.1 66.4 38 4.7 40.4 19.52 0.769
14:41 1025 30.27 854 25.22 19.1 66.3 37 4.3 39.7 19.43 0.765
14:42 1025 30.27 854 25.22 19.1 66.4 41 5.7 42.2 19.52 0.769
14:43 1025 30.27 854 25.22 19.2 66.5 38 4.7 40.5 19.55 0.77
14:44 1025 30.27 854 25.22 19.1 66.5 40 5.5 41.9 19.54 0.769
14:45 1025 30.27 854 25.22 19.1 66.4 38 4.7 40.4 19.55 0.77
14:46 1025 30.27 854 25.22 19.3 66.7 34 3.2 37.8 19.67 0.774
14:47 1025 30.27 854 25.22 19.2 66.6 34 3.2 37.7 19.5 0.768
14:48 1025 30.27 854 25.22 19.1 66.3 38 4.6 40.4 19.4 0.764
14:49 1025 30.27 854 25.22 19 66.3 46 7.3 45.2 19.4 0.764
14:50 1025 30.27 854 25.22 19.1 66.5 41 5.7 42.3 19.59 0.771
14:51 1025 30.27 854 25.22 19.2 66.6 36 3.9 39.1 19.68 0.775
14:52 1025 30.27 854 25.22 19.1 66.4 38 4.5 40 19.4 0.764
14:53 1025 30.27 854 25.22 19.1 66.3 39 5 41 19.57 0.77
14:54 1025 30.27 854 25.22 19.2 66.6 38 4.8 40.6 19.61 0.772
14:55 1025 30.27 854 25.22 19.2 66.5 40 5.4 41.7 19.51 0.768
14:56 1025 30.27 854 25.22 19.2 66.5 35 3.5 38.3 19.52 0.769
14:57 1025 30.27 854 25.22 19.2 66.6 40 5.4 41.7 19.62 0.772
14:58 1025 30.27 854 25.22 19.4 66.8 35 3.7 38.7 19.75 0.778
14:59 1025 30.27 854 25.22 19.3 66.7 41 6 42.8 19.68 0.775
15:00 1025 30.27 854 25.22 19.4 66.8 40 5.4 41.8 19.85 0.781
15:01 1025 30.27 854 25.22 19.4 66.9 35 3.6 38.5 19.83 0.781
15:02 1025 30.27 854 25.22 19.3 66.7 37 4.5 40.1 19.67 0.774
15:03 1025 30.27 854 25.22 19.2 66.6 40 5.5 41.8 19.65 0.774
15:04 1025 30.27 854 25.22 19.3 66.7 39 5 41 19.76 0.778
15:05 1025 30.27 854 25.22 19.2 66.5 36 3.8 38.9 19.69 0.775
15:06 1025 30.27 854 25.22 19 66.3 38 4.4 39.9 19.56 0.77
15:07 1025 30.27 854 25.22 19 66.1 41 5.5 41.9 19.52 0.769
15:08 1025 30.27 854 25.22 19.1 66.4 44 6.8 44.2 19.7 0.776
15:09 1025 30.27 854 25.22 19.4 66.9 38 4.9 40.8 19.98 0.787
15:10 1025 30.27 854 25.22 19.3 66.8 39 5 41 19.78 0.779
15:11 1025 30.27 854 25.22 19.1 66.3 36 4 39.1 19.54 0.769
15:12 1025 30.27 854 25.22 19.1 66.3 41 5.7 42.3 19.61 0.772
15:13 1025 30.27 854 25.22 19.3 66.7 37 4.2 39.6 19.71 0.776
15:14 1025 30.27 854 25.22 19.2 66.5 37 4.3 39.8 19.58 0.771
15:15 1025 30.27 854 25.22 19.2 66.5 38 4.6 40.2 19.57 0.77
15:16 1025 30.27 854 25.22 19.1 66.4 36 4 39.2 19.54 0.769
15:17 1025 30.27 854 25.22 19 66.3 39 4.9 40.7 19.51 0.768
15:18 1025 30.27 854 25.22 19.1 66.4 41 5.7 42.2 19.57 0.77
15:19 1025 30.27 854 25.22 19.3 66.7 43 6.6 43.9 19.92 0.784
15:20 1025 30.27 854 25.22 19.7 67.5 36 4.4 39.9 20.25 0.797
15:21 1025 30.27 854 25.22 19.7 67.4 43 7 44.7 20.1 0.791
15:22 1025 30.27 854 25.22 19.6 67.3 37 4.7 40.5 20.08 0.791
15:23 1025 30.27 854 25.22 19.4 66.8 39 5.1 41.2 19.83 0.781
15:24 1025 30.27 854 25.22 19.2 66.6 41 5.8 42.4 19.77 0.778
15:25 1025 30.27 854 25.22 19.1 66.4 37 4.4 39.8 19.63 0.773
15:26 1025 30.27 854 25.22 18.9 66.1 36 3.5 38.3 19.47 0.767
15:27 1025 30.27 854 25.22 18.8 65.8 39 4.6 40.3 19.25 0.758
15:28 1025 30.27 854 25.22 18.7 65.7 38 4.1 39.4 19.2 0.756
15:29 1025 30.27 854 25.22 18.9 66.1 35 3.2 37.7 19.45 0.766
15:30 1025 30.27 854 25.22 19 66.3 38 4.7 40.4 19.52 0.769
15:31 1025 30.27 854 25.22 19.2 66.5 34 3 37.5 19.66 0.774
15:32 1025 30.27 854 25.22 19.2 66.5 38 4.8 40.6 19.72 0.776
15:33 1025 30.27 854 25.22 19.2 66.6 38 4.8 40.7 19.72 0.776
15:34 1025 30.27 854 25.22 19.3 66.7 38 4.7 40.4 19.83 0.781
15:35 1025 30.27 854 25.22 19.5 67.1 38 4.8 40.7 19.99 0.787
15:36 1025 30.27 854 25.22 19.5 67.1 39 5.2 41.4 20.05 0.789
15:37 1025 30.27 854 25.22 19.5 67.1 44 7.1 44.8 19.97 0.786
15:38 1025 30.27 854 25.22 19.6 67.2 36 4.2 39.5 20 0.787
15:39 1025 30.27 854 25.22 19.5 67 36 4.1 39.4 19.84 0.781
15:40 1025 30.27 854 25.22 19.1 66.3 37 4.3 39.8 19.42 0.765
15:41 1025 30.27 854 25.22 18.7 65.7 36 3.4 38.1 19.04 0.75
15:42 1025 30.27 854 25.22 18.5 65.2 37 3.7 38.7 18.82 0.741
15:43 1025 30.27 854 25.22 18.3 64.9 39 4.2 39.5 18.61 0.733
15:44 1025 30.27 854 25.22 18.2 64.7 37 3.6 38.4 18.6 0.732
15:45 1025 30.27 854 25.22 18.1 64.5 38 3.5 38.3 18.52 0.729
15:46 1025 30.27 854 25.22 18 64.5 41 4.6 40.3 18.43 0.726
15:47 1025 30.27 854 25.22 18 64.3 38 3.7 38.6 18.3 0.72
15:48 1025 30.27 854 25.22 17.9 64.2 38 3.5 38.2 18.26 0.719
15:49 1025 30.27 854 25.22 17.9 64.2 40 4.3 39.8 18.28 0.72
15:50 1025 30.27 854 25.22 18.1 64.6 39 4 39.2 18.52 0.729
15:51 1025 30.27 854 25.22 18.2 64.7 39 4.1 39.3 18.6 0.732
15:52 1025 30.27 854 25.22 18.3 65 36 2.9 37.3 18.74 0.738
15:53 1025 30.27 854 25.22 18.4 65 36 3.3 37.9 18.74 0.738
15:54 1025 30.27 854 25.22 18.4 65.2 38 3.9 39 18.82 0.741
15:55 1025 30.27 854 25.22 18.6 65.4 40 4.7 40.5 19.01 0.748
15:56 1025 30.27 854 25.22 18.8 65.9 39 4.6 40.2 19.27 0.759
15:57 1025 30.27 854 25.22 19 66.1 35 3.3 38 19.38 0.763
15:58 1025 30.27 854 25.22 19 66.2 37 4.3 39.7 19.32 0.761
15:59 1025 30.27 854 25.22 19 66.2 36 3.6 38.4 19.4 0.764
16:00 1025 30.27 854 25.22 19 66.2 35 3.3 38 19.39 0.763
16:01 1025 30.27 854 25.22 19 66.2 34 2.9 37.2 19.4 0.764
16:02 1025 30.27 854 25.22 18.8 65.9 37 4.1 39.3 19.17 0.755
16:03 1025 30.27 854 25.22 18.7 65.6 37 3.8 38.8 19.02 0.749
16:04 1025 30.27 854 25.22 18.6 65.5 38 4.1 39.4 18.91 0.744
16:05 1025 30.27 854 25.22 18.4 65.1 38 4 39.3 18.77 0.739
16:06 1025 30.27 854 25.22 18.2 64.7 41 4.9 40.9 18.6 0.732
16:07 1025 30.27 854 25.22 18 64.5 39 4 39.3 18.46 0.727
16:08 1025 30.27 854 25.22 17.9 64.3 41 4.5 40.1 18.36 0.723
16:09 1025 30.27 854 25.22 17.9 64.2 40 4.4 39.9 18.33 0.722
16:10 1025 30.27 854 25.22 18 64.4 39 3.9 39.1 18.4 0.724
16:11 1025 30.27 854 25.22 18.2 64.7 42 5.2 41.3 18.58 0.731
16:12 1025 30.27 854 25.22 18.4 65.2 42 5.3 41.5 18.92 0.745
16:13 1025 30.27 854 25.22 18.6 65.5 42 5.4 41.7 19.04 0.75
16:14 1024 30.24 854 25.22 18.7 65.7 41 5.2 41.4 19.22 0.757
16:15 1025 30.27 854 25.22 18.8 65.8 40 5.1 41.2 19.26 0.758
16:16 1025 30.27 854 25.22 19 66.1 43 6.3 43.3 19.46 0.766
16:17 1025 30.27 854 25.22 19.2 66.5 39 5.1 41.2 19.58 0.771
16:18 1025 30.27 854 25.22 19.2 66.6 37 4.3 39.7 19.65 0.774
16:19 1025 30.27 854 25.22 19.3 66.7 37 4.6 40.2 19.67 0.774
16:20 1025 30.27 854 25.22 19.4 66.8 37 4.6 40.4 19.8 0.78
16:21 1025 30.27 854 25.22 19.2 66.5 40 5.3 41.5 19.53 0.769
16:22 1025 30.27 854 25.22 18.7 65.6 39 4.8 40.6 19.1 0.752
16:23 1025 30.27 854 25.22 18.4 65.1 40 4.7 40.4 18.76 0.739
16:24 1025 30.27 854 25.22 18.1 64.6 39 4.2 39.5 18.55 0.73
16:25 1025 30.27 854 25.22 18 64.3 40 4.4 39.9 18.38 0.724
16:26 1025 30.27 854 25.22 17.9 64.2 41 4.7 40.4 18.29 0.72
16:27 1025 30.27 854 25.22 17.8 64.1 42 4.8 40.7 18.25 0.719
16:28 1025 30.27 854 25.22 17.8 64 42 4.8 40.6 18.17 0.715
16:29 1025 30.27 854 25.22 17.8 64 41 4.4 40 18.15 0.715
16:30 1025 30.27 854 25.22 17.8 64 40 4.1 39.5 18.14 0.714
16:31 1025 30.27 854 25.22 17.8 64 41 4.3 39.7 18.14 0.714
16:32 1025 30.27 854 25.22 17.8 64 40 4.1 39.4 18.12 0.713
16:33 1025 30.27 854 25.22 17.8 64 40 4.3 39.7 18.11 0.713
16:34 1025 30.27 854 25.22 17.7 63.9 41 4.5 40.2 18.11 0.713
16:35 1025 30.27 854 25.22 17.6 63.7 42 4.7 40.5 17.97 0.707
16:36 1025 30.27 854 25.22 17.5 63.4 41 4.2 39.6 17.77 0.7
16:37 1025 30.27 854 25.22 17.3 63.2 42 4.3 39.8 17.66 0.695
16:38 1025 30.27 854 25.22 17.2 63 43 4.6 40.3 17.6 0.693
16:39 1025 30.27 854 25.22 17.1 62.8 41 4 39.2 17.49 0.689
16:40 1025 30.27 854 25.22 17.1 62.7 43 4.6 40.3 17.53 0.69
16:41 1025 30.27 854 25.22 17.2 62.9 41 4 39.3 17.56 0.691
16:42 1025 30.27 854 25.22 17.1 62.9 42 4.2 39.5 17.54 0.691
16:43 1025 30.27 854 25.22 17.1 62.8 42 4.2 39.5 17.48 0.688
16:44 1025 30.27 854 25.22 17.1 62.8 42 4.2 39.6 17.44 0.687
16:45 1025 30.27 854 25.22 17.1 62.8 42 4.4 39.9 17.53 0.69
16:46 1025 30.27 854 25.22 17.3 63.1 43 4.6 40.3 17.73 0.698
16:47 1025 30.27 854 25.22 17.6 63.7 41 4.5 40 18.04 0.71
16:48 1025 30.27 854 25.22 17.9 64.2 40 4.3 39.7 18.3 0.72
16:49 1025 30.27 854 25.22 18.1 64.6 42 5.2 41.3 18.46 0.727
16:50 1025 30.27 854 25.22 18.2 64.7 40 4.5 40.1 18.61 0.733
16:51 1025 30.27 854 25.22 18.3 64.9 44 5.9 42.6 18.64 0.734
16:52 1025 30.27 854 25.22 18.4 65.1 40 4.7 40.4 18.74 0.738
16:53 1025 30.27 854 25.22 18.3 65 38 4 39.2 18.7 0.736
16:54 1025 30.27 854 25.22 18.3 64.9 38 3.9 39 18.67 0.735
16:55 1025 30.27 854 25.22 18.4 65.1 42 5.4 41.7 18.8 0.74
16:56 1025 30.27 854 25.22 18.6 65.5 39 4.6 40.3 19.01 0.748
16:57 1025 30.27 854 25.22 18.6 65.4 40 4.9 40.7 18.93 0.745
16:58 1025 30.27 854 25.22 18.4 65.1 41 5 41 18.78 0.739
16:59 1025 30.27 854 25.22 18.3 64.9 39 4.4 39.9 18.69 0.736
17:00 1025 30.27 854 25.22 18.2 64.7 41 4.8 40.6 18.62 0.733
17:01 1025 30.27 854 25.22 18.3 64.9 40 4.6 40.3 18.68 0.735
17:02 1025 30.27 854 25.22 18.3 65 41 5 41 18.75 0.738
17:03 1025 30.27 854 25.22 18.3 64.9 39 4.2 39.6 18.7 0.736
17:04 1025 30.27 854 25.22 18.3 64.9 41 5 41 18.63 0.733
17:05 1025 30.27 854 25.22 18.2 64.8 41 4.8 40.6 18.6 0.732
17:06 1025 30.27 854 25.22 18.2 64.8 39 4.1 39.4 18.55 0.73
17:07 1025 30.27 854 25.22 18.2 64.7 39 3.9 39.1 18.47 0.727
17:08 1025 30.27 854 25.22 18 64.3 39 4.1 39.4 18.34 0.722
17:09 1025 30.27 854 25.22 17.9 64.2 39 3.9 38.9 18.27 0.719
17:10 1025 30.27 854 25.22 17.9 64.2 39 3.9 39 18.21 0.717
17:11 1025 30.27 854 25.22 17.9 64.2 39 3.9 39 18.24 0.718
17:12 1025 30.27 854 25.22 17.9 64.2 40 4.3 39.8 18.26 0.719
17:13 1025 30.27 854 25.22 18 64.4 43 5.4 41.7 18.4 0.724
17:14 1025 30.27 854 25.22 18.1 64.6 41 4.7 40.5 18.41 0.725
17:15 1025 30.27 854 25.22 17.9 64.3 40 4.3 39.7 18.24 0.718
17:16 1025 30.27 854 25.22 17.8 64.1 40 4.2 39.6 18.2 0.717
17:17 1025 30.27 854 25.22 17.8 64 39 3.8 38.8 18.13 0.714
17:18 1025 30.27 854 25.22 17.7 63.9 38 3.4 38.1 18.04 0.71
17:19 1025 30.27 854 25.22 17.6 63.7 39 3.6 38.4 17.96 0.707
17:20 1025 30.27 854 25.22 17.5 63.6 41 4.1 39.4 17.86 0.703
17:21 1025 30.27 854 25.22 17.5 63.6 39 3.4 38.1 17.88 0.704
17:22 1025 30.27 854 25.22 17.5 63.5 39 3.4 38.1 17.86 0.703
17:23 1025 30.27 854 25.22 17.5 63.6 39 3.5 38.3 17.91 0.705
17:24 1025 30.27 854 25.22 17.5 63.6 40 4 39.1 17.88 0.704
17:25 1025 30.27 854 25.22 17.6 63.8 40 4.1 39.3 18.06 0.711
17:26 1025 30.27 854 25.22 17.8 64 41 4.4 39.9 18.15 0.715
17:27 1025 30.27 854 25.22 17.8 64 39 3.8 38.8 18.17 0.715
17:28 1025 30.27 854 25.22 17.7 63.9 41 4.3 39.7 18.08 0.712
17:29 1025 30.27 854 25.22 17.7 63.8 42 4.8 40.6 18.02 0.709
17:30 1025 30.27 854 25.22 17.6 63.7 41 4.3 39.8 18.06 0.711
17:31 1025 30.27 854 25.22 17.7 63.8 40 3.9 39 18.07 0.711
17:32 1025 30.27 854 25.22 17.7 63.8 41 4.3 39.8 18.01 0.709
17:33 1025 30.27 854 25.22 17.7 63.9 42 4.8 40.6 18.08 0.712
17:34 1025 30.27 854 25.22 17.8 64.1 42 4.8 40.6 18.24 0.718
17:35 1025 30.27 854 25.22 17.9 64.2 42 4.8 40.6 18.22 0.717
17:36 1025 30.27 854 25.22 17.9 64.2 40 4.4 39.9 18.22 0.717
17:37 1025 30.27 854 25.22 17.8 64 41 4.5 40.1 18.15 0.715
17:38 1025 30.27 854 25.22 17.7 63.9 44 5.3 41.6 18.05 0.711
17:39 1025 30.27 854 25.22 17.8 64 42 4.9 40.9 18.17 0.715
17:40 1025 30.27 854 25.22 17.8 64.1 41 4.6 40.2 18.16 0.715
17:41 1025 30.27 854 25.22 17.7 63.9 42 4.9 40.8 18.1 0.713
17:42 1025 30.27 854 25.22 17.7 63.9 42 4.7 40.4 18.05 0.711
17:43 1025 30.27 854 25.22 17.7 63.8 42 4.5 40.2 18 0.709
17:44 1025 30.27 854 25.22 17.6 63.6 41 4.2 39.5 17.92 0.706
17:45 1025 30.27 854 25.22 17.5 63.6 41 4.3 39.7 17.87 0.704
17:46 1025 30.27 854 25.22 17.5 63.4 42 4.4 39.9 17.86 0.703
17:47 1025 30.27 854 25.22 17.4 63.3 43 4.7 40.5 17.79 0.7
17:48 1025 30.27 854 25.22 17.4 63.3 41 4.1 39.4 17.83 0.702
17:49 1025 30.27 854 25.22 17.4 63.3 43 5 40.9 17.8 0.701
17:50 1025 30.27 854 25.22 17.5 63.5 43 5 40.9 17.85 0.703
17:51 1025 30.27 854 25.22 17.5 63.5 40 4 39.1 17.84 0.702
17:52 1025 30.27 854 25.22 17.4 63.3 40 3.9 39 17.74 0.698
17:53 1025 30.27 854 25.22 17.3 63.2 42 4.5 40.1 17.72 0.698
17:54 1025 30.27 854 25.22 17.4 63.2 40 3.8 38.9 17.72 0.698
17:55 1025 30.27 854 25.22 17.3 63.2 42 4.5 40.1 17.67 0.696
17:56 1025 30.27 854 25.22 17.3 63.1 42 4.3 39.7 17.61 0.693
17:57 1025 30.27 854 25.22 17.3 63.1 44 5.1 41.1 17.72 0.698
17:58 1025 30.27 854 25.22 17.4 63.3 43 4.7 40.5 17.76 0.699
17:59 1025 30.27 854 25.22 17.4 63.3 42 4.4 40 17.77 0.7
18:00 1025 30.27 854 25.22 17.4 63.2 42 4.3 39.8 17.71 0.697
18:01 1025 30.27 854 25.22 17.3 63.1 42 4.5 40 17.68 0.696
18:02 1025 30.27 854 25.22 17.3 63.2 41 3.9 39 17.71 0.697
18:03 1025 30.27 854 25.22 17.3 63.2 43 4.9 40.8 17.68 0.696
18:04 1025 30.27 854 25.22 17.3 63.2 42 4.3 39.7 17.69 0.696
18:05 1025 30.27 854 25.22 17.3 63.1 42 4.2 39.6 17.58 0.692
18:06 1025 30.27 854 25.22 17.3 63.1 43 4.8 40.6 17.6 0.693
18:07 1025 30.27 854 25.22 17.3 63.1 41 4.1 39.3 17.65 0.695
18:08 1025 30.27 854 25.22 17.2 63 42 4.2 39.6 17.55 0.691
18:09 1025 30.27 854 25.22 17.2 63 42 4.2 39.6 17.54 0.691
18:10 1025 30.27 854 25.22 17.2 63 41 4 39.2 17.55 0.691
18:11 1025 30.27 854 25.22 17.2 62.9 41 4.1 39.4 17.54 0.691
18:12 1025 30.27 854 25.22 17.2 63 43 4.5 40.1 17.55 0.691
18:13 1025 30.27 854 25.22 17.2 63 42 4.4 39.9 17.59 0.693
18:14 1025 30.27 854 25.22 17.2 63 42 4.3 39.8 17.6 0.693
18:15 1025 30.27 854 25.22 17.2 62.9 41 4 39.2 17.49 0.689
18:16 1025 30.27 854 25.22 17 62.7 41 4 39.1 17.42 0.686
18:17 1025 30.27 854 25.22 17 62.6 42 4.1 39.4 17.41 0.685
18:18 1025 30.27 854 25.22 17.1 62.7 44 5 40.9 17.42 0.686
18:19 1025 30.27 854 25.22 17.1 62.7 41 4 39.2 17.45 0.687
18:20 1025 30.27 854 25.22 17 62.6 42 4.1 39.3 17.39 0.685
18:21 1025 30.27 854 25.22 17 62.6 40 3.4 38.1 17.36 0.683
18:22 1025 30.27 854 25.22 17 62.5 41 3.7 38.7 17.34 0.683
18:23 1025 30.27 854 25.22 16.9 62.5 42 4.1 39.4 17.31 0.681
18:24 1025 30.27 854 25.22 16.9 62.4 42 4.1 39.4 17.29 0.681
18:25 1025 30.27 854 25.22 16.9 62.4 42 4.1 39.4 17.23 0.678
18:26 1025 30.27 854 25.22 16.8 62.3 43 4.3 39.7 17.2 0.677
18:27 1025 30.27 854 25.22 16.8 62.3 42 3.9 39 17.18 0.676
18:28 1025 30.27 854 25.22 16.8 62.3 43 4.3 39.7 17.25 0.679
18:29 1025 30.27 854 25.22 16.9 62.4 43 4.2 39.6 17.29 0.681
18:30 1025 30.27 854 25.22 17 62.5 43 4.4 39.9 17.31 0.681
18:31 1025 30.27 854 25.22 17 62.5 45 4.9 40.8 17.33 0.682
18:32 1025 30.27 854 25.22 17 62.5 42 4.1 39.4 17.3 0.681
18:33 1025 30.27 854 25.22 16.9 62.4 42 4.1 39.4 17.19 0.677
18:34 1025 30.27 854 25.22 16.8 62.2 43 4.2 39.6 17.11 0.674
18:35 1025 30.27 854 25.22 16.7 62.1 43 4.2 39.5 17.06 0.672
18:36 1025 30.27 854 25.22 16.6 62 43 4.1 39.5 16.98 0.669
18:37 1025 30.27 854 25.22 16.6 61.8 43 4.1 39.4 16.93 0.667
18:38 1025 30.27 854 25.22 16.5 61.7 44 4.4 39.9 16.93 0.667
18:39 1025 30.27 854 25.22 16.6 61.8 45 4.8 40.6 16.91 0.666
18:40 1025 30.27 854 25.22 16.5 61.6 44 4.2 39.6 16.86 0.664
18:41 1025 30.27 854 25.22 16.4 61.6 45 4.6 40.3 16.77 0.66
18:42 1025 30.27 854 25.22 16.4 61.5 45 4.4 39.9 16.75 0.659
18:43 1025 30.27 854 25.22 16.4 61.4 44 4.2 39.6 16.77 0.66
18:44 1025 30.27 854 25.22 16.4 61.5 46 4.7 40.5 16.8 0.661
18:45 1025 30.27 854 25.22 16.4 61.5 45 4.4 40 16.76 0.66
18:46 1025 30.27 854 25.22 16.4 61.6 43 4 39.1 16.76 0.66
18:47 1025 30.27 854 25.22 16.3 61.4 45 4.4 40 16.66 0.656
18:48 1025 30.27 854 25.22 16.2 61.2 44 4.1 39.3 16.58 0.653
18:49 1025 30.27 854 25.22 16.2 61.1 44 4 39.2 16.46 0.648
18:50 1025 30.27 854 25.22 16.1 61 44 3.9 39 16.51 0.65
18:51 1025 30.27 854 25.22 16.1 61 44 3.9 39 16.44 0.647
18:52 1025 30.27 854 25.22 16.1 61 43 3.5 38.3 16.44 0.647
18:53 1025 30.27 854 25.22 16.1 60.9 43 3.7 38.7 16.41 0.646
18:54 1025 30.27 854 25.22 16 60.9 45 4.2 39.5 16.38 0.645
18:55 1025 30.27 854 25.22 16 60.9 43 3.5 38.3 16.41 0.646
18:56 1025 30.27 854 25.22 16 60.8 43 3.6 38.5 16.42 0.646
18:57 1025 30.27 854 25.22 16 60.8 44 3.8 38.8 16.38 0.645
18:58 1025 30.27 854 25.22 16 60.7 45 4.3 39.7 16.36 0.644
18:59 1025 30.27 854 25.22 16 60.7 44 3.9 39.1 16.32 0.643
19:00 1025 30.27 854 25.22 15.9 60.7 45 4.1 39.4 16.28 0.641
19:01 1025 30.27 854 25.22 15.9 60.7 45 4.2 39.6 16.25 0.64
19:02 1025 30.27 854 25.22 15.8 60.5 45 3.9 38.9 16.24 0.639
19:03 1025 30.27 854 25.22 15.8 60.5 46 4.4 39.9 16.16 0.636
19:04 1025 30.27 854 25.22 15.8 60.5 46 4.5 40 16.18 0.637
19:05 1025 30.27 854 25.22 15.8 60.4 45 4.1 39.3 16.18 0.637
19:06 1025 30.27 854 25.22 15.8 60.5 46 4.3 39.8 16.14 0.635
19:07 1025 30.27 854 25.22 15.7 60.3 46 4.1 39.4 16.05 0.632
19:08 1025 30.27 854 25.22 15.7 60.2 46 4.2 39.6 15.99 0.63
19:09 1025 30.27 854 25.22 15.6 60.1 46 4.2 39.5 15.97 0.629
19:10 1025 30.27 854 25.22 15.6 60.1 46 4 39.2 15.89 0.626
19:11 1025 30.27 854 25.22 15.5 60 47 4.2 39.6 15.89 0.626
19:12 1025 30.27 854 25.22 15.5 59.8 46 3.9 39 15.82 0.623
19:13 1025 30.27 854 25.22 15.4 59.8 46 4.1 39.4 15.79 0.622
19:14 1025 30.27 854 25.22 15.4 59.7 46 4.1 39.3 15.75 0.62
19:15 1025 30.27 854 25.22 15.3 59.6 46 3.8 38.9 15.66 0.617
19:16 1025 30.27 854 25.22 15.3 59.5 46 3.8 38.8 15.63 0.615
19:17 1025 30.27 854 25.22 15.3 59.5 46 3.7 38.7 15.64 0.616
19:18 1025 30.27 854 25.22 15.2 59.4 46 3.9 39 15.62 0.615
19:19 1025 30.27 854 25.22 15.2 59.4 46 3.7 38.7 15.55 0.612
19:20 1025 30.27 854 25.22 15.2 59.3 46 3.7 38.7 15.6 0.614
19:21 1025 30.27 854 25.22 15.2 59.4 45 3.6 38.4 15.56 0.613
19:22 1025 30.27 854 25.22 15.2 59.4 46 3.6 38.6 15.59 0.614
19:23 1025 30.27 854 25.22 15.2 59.4 47 3.9 39 15.55 0.612
19:24 1025 30.27 854 25.22 15.2 59.4 47 4.1 39.4 15.53 0.611
19:25 1025 30.27 854 25.22 15.2 59.3 47 3.9 39.1 15.49 0.61
19:26 1025 30.27 854 25.22 15.1 59.2 47 4 39.1 15.45 0.608
19:27 1025 30.27 854 25.22 15.1 59.1 47 3.8 38.8 15.43 0.607
19:28 1025 30.27 854 25.22 15 59 47 3.8 38.9 15.39 0.606
19:29 1025 30.27 854 25.22 15 59 47 4 39.2 15.32 0.603
19:30 1025 30.27 854 25.22 15 58.9 48 4 39.2 15.31 0.603
19:31 1025 30.27 854 25.22 14.9 58.9 47 3.9 39 15.28 0.602
19:32 1025 30.27 854 25.22 14.9 58.8 47 3.9 38.9 15.26 0.601
19:33 1025 30.27 854 25.22 14.8 58.7 48 3.9 39.1 15.24 0.6
19:34 1025 30.27 854 25.22 14.9 58.7 49 4.3 39.7 15.16 0.597
19:35 1025 30.27 854 25.22 14.8 58.6 47 3.8 38.9 15.13 0.596
19:36 1025 30.27 854 25.22 14.8 58.6 47 3.8 38.8 15.12 0.595
19:37 1025 30.27 854 25.22 14.8 58.6 48 3.9 39 15.11 0.595
19:38 1025 30.27 854 25.22 14.7 58.5 48 3.8 38.9 15.07 0.593
19:39 1025 30.27 854 25.22 14.7 58.4 49 4.2 39.5 15.07 0.593
19:40 1025 30.27 854 25.22 14.7 58.4 48 3.9 39 15.04 0.592
19:41 1025 30.27 854 25.22 14.6 58.4 47 3.5 38.3 15.01 0.591
19:42 1025 30.27 854 25.22 14.6 58.4 48 3.8 38.9 15 0.591
19:43 1025 30.27 854 25.22 14.6 58.3 47 3.5 38.2 14.92 0.587
19:44 1025 30.27 854 25.22 14.6 58.2 48 3.6 38.6 14.89 0.586
19:45 1025 30.27 854 25.22 14.5 58.1 46 3.2 37.7 14.93 0.588
19:46 1025 30.27 854 25.22 14.6 58.2 47 3.5 38.3 14.92 0.587
19:47 1025 30.27 854 25.22 14.5 58.2 46 3.2 37.8 14.94 0.588
19:48 1025 30.27 854 25.22 14.5 58.1 48 3.6 38.6 14.9 0.587
19:49 1025 30.27 854 25.22 14.5 58.1 47 3.5 38.2 14.84 0.584
19:50 1025 30.27 854 25.22 14.5 58 48 3.6 38.5 14.8 0.583
19:51 1025 30.27 854 25.22 14.4 58 48 3.7 38.7 14.78 0.582
19:52 1025 30.27 854 25.22 14.4 57.9 49 3.9 39.1 14.76 0.581
19:53 1025 30.27 854 25.22 14.3 57.7 48 3.6 38.4 14.65 0.577
19:54 1025 30.27 854 25.22 14.3 57.8 49 3.7 38.7 14.7 0.579
19:55 1025 30.27 854 25.22 14.3 57.8 48 3.5 38.4 14.67 0.578
19:56 1025 30.27 854 25.22 14.3 57.8 48 3.5 38.3 14.69 0.578
19:57 1025 30.27 854 25.22 14.3 57.8 47 3.3 37.9 14.67 0.578
19:58 1025 30.27 854 25.22 14.3 57.8 48 3.6 38.5 14.66 0.577
19:59 1025 30.27 854 25.22 14.2 57.6 49 3.7 38.7 14.59 0.574
20:00 1025 30.27 854 25.22 14.2 57.5 47 3.2 37.8 14.53 0.572
20:01 1025 30.27 854 25.22 14.2 57.5 48 3.3 38 14.56 0.573
20:02 1025 30.27 854 25.22 14.2 57.5 47 3.1 37.6 14.51 0.571
20:03 1025 30.27 854 25.22 14.1 57.4 48 3.4 38.2 14.5 0.571
20:04 1025 30.27 854 25.22 14.1 57.3 49 3.5 38.4 14.44 0.569
20:05 1025 30.27 854 25.22 14 57.2 47 3 37.5 14.38 0.566
20:06 1025 30.27 854 25.22 14.1 57.3 48 3.3 37.9 14.46 0.569
20:07 1025 30.27 854 25.22 14.1 57.3 48 3.3 38 14.43 0.568
20:08 1025 30.27 854 25.22 14 57.2 48 3.2 37.7 14.36 0.565
20:09 1025 30.27 854 25.22 14 57.1 49 3.4 38.1 14.37 0.566
20:10 1025 30.27 854 25.22 14 57.1 48 3.1 37.5 14.38 0.566
20:11 1025 30.27 854 25.22 14 57.2 49 3.6 38.5 14.35 0.565
20:12 1025 30.27 854 25.22 13.9 56.9 49 3.5 38.2 14.22 0.56
20:13 1025 30.27 854 25.22 13.8 56.9 49 3.3 38 14.16 0.557
20:14 1025 30.27 854 25.22 13.8 56.9 49 3.3 37.9 14.18 0.558
20:15 1025 30.27 855 25.25 13.8 56.8 49 3.3 38 14.13 0.556
20:16 1025 30.27 855 25.25 13.7 56.7 49 3.4 38.1 14.13 0.556
20:17 1025 30.27 855 25.25 13.7 56.7 49 3.3 38 14.11 0.556
20:18 1025 30.27 855 25.25 13.7 56.6 50 3.5 38.3 14.06 0.554
20:19 1025 30.27 855 25.25 13.7 56.6 49 3.2 37.8 14.06 0.554
20:20 1025 30.27 855 25.25 13.7 56.6 50 3.5 38.3 14.03 0.552
20:21 1025 30.27 855 25.25 13.6 56.4 50 3.4 38 13.91 0.548
20:22 1025 30.27 855 25.25 13.5 56.3 49 3.2 37.7 13.9 0.547
20:23 1025 30.27 855 25.25 13.5 56.4 50 3.3 37.9 13.95 0.549
20:24 1025 30.27 855 25.25 13.5 56.4 50 3.3 37.9 13.92 0.548
20:25 1025 30.27 855 25.25 13.5 56.3 50 3.3 37.9 13.92 0.548
20:26 1025 30.27 855 25.25 13.5 56.2 50 3.4 38.1 13.89 0.547
20:27 1025 30.27 855 25.25 13.4 56.1 50 3.3 37.9 13.82 0.544
20:28 1025 30.27 855 25.25 13.4 56.1 50 3.4 38.1 13.8 0.543
20:29 1025 30.27 855 25.25 13.3 56 51 3.5 38.2 13.71 0.54
20:30 1025 30.27 855 25.25 13.3 55.9 51 3.5 38.2 13.63 0.537
20:31 1025 30.27 855 25.25 13.2 55.7 50 3.2 37.7 13.58 0.535
20:32 1025 30.27 855 25.25 13.2 55.8 50 3.2 37.7 13.6 0.535
20:33 1025 30.27 855 25.25 13.2 55.7 51 3.4 38.1 13.58 0.535
20:34 1025 30.27 855 25.25 13.2 55.7 51 3.3 38 13.53 0.533
20:35 1025 30.27 855 25.25 13.1 55.6 52 3.4 38.2 13.49 0.531
20:36 1025 30.27 855 25.25 13.1 55.6 51 3.3 37.9 13.47 0.53
20:37 1025 30.27 855 25.25 13.1 55.6 51 3.4 38.1 13.51 0.532
20:38 1025 30.27 855 25.25 13.1 55.5 51 3.3 37.9 13.46 0.53
20:39 1025 30.27 855 25.25 13 55.4 52 3.4 38 13.37 0.526
20:40 1025 30.27 855 25.25 13 55.4 52 3.3 38 13.33 0.525
20:41 1025 30.27 855 25.25 13 55.3 52 3.3 37.9 13.38 0.527
20:42 1025 30.27 855 25.25 12.9 55.3 52 3.4 38.1 13.33 0.525
20:43 1026 30.3 855 25.25 12.9 55.2 53 3.5 38.3 13.29 0.523
20:44 1026 30.3 855 25.25 12.8 55.1 52 3.4 38.1 13.26 0.522
20:45 1026 30.3 855 25.25 12.9 55.2 52 3.3 37.9 13.27 0.522
20:46 1026 30.3 855 25.25 12.9 55.1 52 3.3 38 13.26 0.522
20:47 1026 30.3 855 25.25 12.9 55.1 52 3.3 38 13.26 0.522
20:48 1026 30.3 855 25.25 12.9 55.2 52 3.3 38 13.27 0.522
20:49 1026 30.3 855 25.25 12.8 55.1 52 3.4 38.1 13.19 0.519
20:50 1026 30.3 855 25.25 12.8 55 53 3.4 38.2 13.2 0.52
20:51 1025 30.27 855 25.25 12.8 55 53 3.5 38.3 13.14 0.517
20:52 1026 30.3 855 25.25 12.7 54.9 52 3.3 37.9 13.14 0.517
20:53 1026 30.3 855 25.25 12.7 54.9 54 3.6 38.5 13.09 0.515
20:54 1026 30.3 855 25.25 12.6 54.8 53 3.4 38.1 13.02 0.513
20:55 1026 30.3 855 25.25 12.6 54.7 53 3.4 38.1 12.99 0.511
20:56 1026 30.3 855 25.25 12.6 54.6 54 3.5 38.3 12.95 0.51
20:57 1026 30.3 855 25.25 12.5 54.5 54 3.5 38.3 12.9 0.508
20:58 1026 30.3 855 25.25 12.4 54.4 54 3.4 38.1 12.84 0.506
20:59 1026 30.3 855 25.25 12.5 54.5 53 3.3 38 12.9 0.508
21:00 1026 30.3 855 25.25 12.5 54.6 53 3.3 38 13 0.512
21:01 1026 30.3 855 25.25 12.6 54.7 53 3.3 37.9 12.98 0.511
21:02 1026 30.3 855 25.25 12.6 54.6 53 3.4 38.1 12.97 0.511
21:03 1026 30.3 855 25.25 12.5 54.5 54 3.5 38.2 12.84 0.506
21:04 1026 30.3 855 25.25 12.4 54.3 55 3.6 38.5 12.76 0.502
21:05 1026 30.3 855 25.25 12.3 54.1 54 3.4 38.1 12.66 0.498
21:06 1026 30.3 855 25.25 12.3 54.2 55 3.6 38.4 12.7 0.5
21:07 1026 30.3 855 25.25 12.2 54 55 3.5 38.3 12.61 0.496
21:08 1026 30.3 855 25.25 12.2 54 55 3.4 38.2 12.61 0.496
21:09 1026 30.3 855 25.25 12.2 54 55 3.4 38.2 12.62 0.497
21:10 1026 30.3 855 25.25 12.2 53.9 55 3.4 38.1 12.65 0.498
21:11 1026 30.3 855 25.25 12.2 54 55 3.4 38.2 12.65 0.498
21:12 1026 30.3 855 25.25 12.3 54.1 54 3.3 38 12.64 0.498
21:13 1026 30.3 855 25.25 12.3 54.1 55 3.5 38.4 12.66 0.498
21:14 1026 30.3 855 25.25 12.2 54 55 3.5 38.4 12.65 0.498
21:15 1026 30.3 855 25.25 12.2 54 55 3.5 38.2 12.63 0.497
21:16 1026 30.3 855 25.25 12.2 54 55 3.6 38.5 12.6 0.496
21:17 1026 30.3 855 25.25 12.2 53.9 56 3.7 38.6 12.59 0.496
21:18 1026 30.3 855 25.25 12.2 53.9 56 3.6 38.6 12.5 0.492
21:19 1026 30.3 855 25.25 12 53.7 56 3.7 38.6 12.4 0.488
21:20 1026 30.3 855 25.25 11.9 53.5 56 3.5 38.2 12.35 0.486
21:21 1026 30.3 855 25.25 12 53.5 56 3.6 38.5 12.38 0.487
21:22 1026 30.3 855 25.25 11.9 53.5 56 3.6 38.5 12.35 0.486
21:23 1026 30.3 855 25.25 11.9 53.3 56 3.5 38.3 12.24 0.482
21:24 1026 30.3 855 25.25 11.9 53.4 57 3.6 38.5 12.28 0.483
21:25 1026 30.3 855 25.25 11.9 53.4 57 3.6 38.6 12.32 0.485
21:26 1026 30.3 855 25.25 11.9 53.4 57 3.7 38.7 12.23 0.481
21:27 1026 30.3 855 25.25 11.8 53.3 57 3.6 38.4 12.18 0.48
21:28 1026 30.3 855 25.25 11.8 53.3 58 3.8 38.8 12.21 0.481
21:29 1026 30.3 855 25.25 11.7 53.1 58 3.8 38.8 12.11 0.477
21:30 1026 30.3 855 25.25 11.7 53 58 3.6 38.6 12.02 0.473
21:31 1026 30.3 855 25.25 11.7 53 58 3.7 38.6 12.07 0.475
21:32 1026 30.3 855 25.25 11.7 53 58 3.8 38.9 12.08 0.476
21:33 1026 30.3 855 25.25 11.6 52.9 59 3.9 39 11.97 0.471
21:34 1026 30.3 855 25.25 11.6 52.8 59 3.8 38.8 11.93 0.47
21:35 1026 30.3 855 25.25 11.5 52.7 59 3.8 38.8 11.86 0.467
21:36 1026 30.3 855 25.25 11.5 52.7 59 3.8 38.8 11.94 0.47
21:37 1026 30.3 855 25.25 11.5 52.7 59 3.9 39 11.92 0.469
21:38 1026 30.3 855 25.25 11.5 52.7 59 3.8 38.9 11.89 0.468
21:39 1026 30.3 855 25.25 11.5 52.7 59 3.8 38.9 11.84 0.466
21:40 1026 30.3 855 25.25 11.4 52.6 59 3.8 38.8 11.84 0.466
21:41 1026 30.3 855 25.25 11.5 52.6 60 4 39.1 11.85 0.467
21:42 1026 30.3 855 25.25 11.4 52.6 60 3.9 39 11.84 0.466
21:43 1026 30.3 855 25.25 11.4 52.5 59 3.8 38.9 11.78 0.464
21:44 1026 30.3 855 25.25 11.4 52.4 60 4 39.1 11.72 0.461
21:45 1026 30.3 855 25.25 11.3 52.4 60 3.9 39 11.71 0.461
21:46 1026 30.3 855 25.25 11.3 52.4 59 3.7 38.7 11.72 0.461
21:47 1026 30.3 855 25.25 11.4 52.5 60 3.9 39 11.75 0.463
21:48 1026 30.3 855 25.25 11.3 52.4 60 3.9 39 11.74 0.462
21:49 1026 30.3 855 25.25 11.3 52.3 60 3.9 39 11.7 0.461
21:50 1026 30.3 855 25.25 11.2 52.1 61 3.9 39 11.58 0.456
21:51 1026 30.3 855 25.25 11.1 52 61 3.9 39.1 11.53 0.454
21:52 1026 30.3 855 25.25 11.1 52 61 3.9 39.1 11.45 0.451
21:53 1026 30.3 855 25.25 11 51.9 61 3.9 38.9 11.45 0.451
21:54 1026 30.3 855 25.25 11 51.8 61 3.8 38.9 11.39 0.448
21:55 1026 30.3 855 25.25 11 51.8 61 3.8 38.9 11.42 0.45
21:56 1026 30.3 855 25.25 11 51.8 62 4 39.1 11.37 0.448
21:57 1026 30.3 855 25.25 10.9 51.6 61 3.8 38.8 11.35 0.447
21:58 1026 30.3 855 25.25 11 51.8 61 3.9 38.9 11.36 0.447
21:59 1026 30.3 855 25.25 11 51.8 61 3.9 38.9 11.35 0.447
22:00 1026 30.3 855 25.25 11 51.7 61 3.7 38.7 11.34 0.446
22:01 1026 30.3 855 25.25 11 51.8 61 3.7 38.7 11.41 0.449
22:02 1026 30.3 855 25.25 11 51.8 61 3.9 39.1 11.38 0.448
22:03 1026 30.3 855 25.25 10.9 51.6 62 3.9 39 11.31 0.445
22:04 1026 30.3 855 25.25 10.8 51.5 62 3.9 39 11.21 0.441
22:05 1026 30.3 855 25.25 10.8 51.4 61 3.7 38.6 11.19 0.441
22:06 1026 30.3 855 25.25 10.8 51.4 61 3.7 38.6 11.21 0.441
22:07 1026 30.3 855 25.25 10.8 51.4 61 3.7 38.6 11.21 0.441
22:08 1026 30.3 855 25.25 10.8 51.5 61 3.7 38.7 11.21 0.441
22:09 1026 30.3 855 25.25 10.8 51.5 61 3.7 38.7 11.2 0.441
22:10 1026 30.3 855 25.25 10.8 51.4 62 3.7 38.7 11.15 0.439
22:11 1026 30.3 855 25.25 10.7 51.3 62 3.8 38.8 11.06 0.435
22:12 1026 30.3 855 25.25 10.7 51.2 62 3.7 38.7 11.09 0.437
22:13 1026 30.3 855 25.25 10.6 51.1 61 3.5 38.4 10.99 0.433
22:14 1026 30.3 855 25.25 10.6 51.2 62 3.7 38.6 11.05 0.435
22:15 1026 30.3 855 25.25 10.6 51 62 3.6 38.5 10.98 0.432
22:16 1026 30.3 855 25.25 10.6 51 62 3.6 38.4 11.01 0.433
22:17 1026 30.3 855 25.25 10.6 51.2 61 3.5 38.4 11.05 0.435
22:18 1026 30.3 855 25.25 10.7 51.2 61 3.6 38.4 11.07 0.436
22:19 1026 30.3 855 25.25 10.6 51.2 62 3.7 38.6 11.02 0.434
22:20 1026 30.3 855 25.25 10.6 51 62 3.6 38.6 10.92 0.43
22:21 1026 30.3 855 25.25 10.5 50.9 62 3.7 38.6 10.9 0.429
22:22 1026 30.3 856 25.28 10.4 50.8 63 3.7 38.6 10.8 0.425
22:23 1026 30.3 856 25.28 10.4 50.7 63 3.6 38.5 10.73 0.422
22:24 1026 30.3 856 25.28 10.3 50.5 62 3.4 38.1 10.74 0.423
22:25 1026 30.3 855 25.25 10.4 50.7 62 3.5 38.4 10.81 0.426
22:26 1026 30.3 855 25.25 10.3 50.6 62 3.5 38.4 10.75 0.423
22:27 1026 30.3 856 25.28 10.3 50.5 62 3.4 38.1 10.74 0.423
22:28 1026 30.3 856 25.28 10.3 50.5 63 3.5 38.3 10.71 0.422
22:29 1026 30.3 855 25.25 10.3 50.5 63 3.5 38.4 10.66 0.42
22:30 1026 30.3 855 25.25 10.2 50.4 63 3.5 38.3 10.6 0.417
22:31 1026 30.3 855 25.25 10.2 50.4 63 3.5 38.2 10.6 0.417
22:32 1026 30.3 856 25.28 10.3 50.5 62 3.4 38.1 10.65 0.419
22:33 1026 30.3 856 25.28 10.3 50.5 62 3.4 38.1 10.65 0.419
22:34 1026 30.3 855 25.25 10.2 50.4 63 3.5 38.2 10.58 0.417
22:35 1026 30.3 855 25.25 10.2 50.3 63 3.4 38.1 10.53 0.415
22:36 1026 30.3 855 25.25 10.1 50.2 63 3.4 38 10.55 0.415
22:37 1026 30.3 855 25.25 10.1 50.1 63 3.4 38.1 10.48 0.413
22:38 1026 30.3 855 25.25 10.1 50.1 63 3.3 38 10.49 0.413
22:39 1026 30.3 855 25.25 10 50.1 63 3.3 37.9 10.4 0.409
22:40 1026 30.3 855 25.25 10 50 62 3.2 37.7 10.39 0.409
22:41 1026 30.3 855 25.25 10 50 63 3.2 37.8 10.35 0.407
22:42 1026 30.3 855 25.25 10 49.9 62 3.1 37.6 10.32 0.406
22:43 1026 30.3 855 25.25 10 50 63 3.3 37.9 10.38 0.409
22:44 1026 30.3 855 25.25 10 50 62 3.1 37.6 10.38 0.409
22:45 1026 30.3 856 25.28 10 50.1 62 3.1 37.5 10.41 0.41
22:46 1026 30.3 856 25.28 10.1 50.2 62 3.1 37.7 10.48 0.413
22:47 1026 30.3 855 25.25 10 50 62 3.2 37.7 10.43 0.411
22:48 1026 30.3 855 25.25 9.9 49.9 62 3.1 37.5 10.28 0.405
22:49 1026 30.3 855 25.25 9.9 49.7 63 3.2 37.7 10.24 0.403
22:50 1026 30.3 855 25.25 9.8 49.6 62 3 37.4 10.21 0.402
22:51 1026 30.3 855 25.25 9.8 49.7 62 3 37.4 10.25 0.404
22:52 1026 30.3 856 25.28 9.9 49.8 62 3 37.4 10.26 0.404
22:53 1026 30.3 855 25.25 9.9 49.8 63 3.1 37.6 10.25 0.404
22:54 1026 30.3 855 25.25 9.8 49.6 62 3 37.4 10.17 0.4
22:55 1026 30.3 855 25.25 9.8 49.6 63 3 37.5 10.13 0.399
22:56 1026 30.3 856 25.28 9.7 49.5 63 3 37.3 10.11 0.398
22:57 1026 30.3 856 25.28 9.8 49.6 62 3 37.3 10.14 0.399
22:58 1026 30.3 855 25.25 9.7 49.5 63 3 37.5 10.09 0.397
22:59 1026 30.3 856 25.28 9.7 49.4 63 2.9 37.2 10.04 0.395
23:00 1026 30.3 855 25.25 9.6 49.3 63 2.9 37.2 10.03 0.395
23:01 1026 30.3 856 25.28 9.7 49.4 63 3 37.4 10.03 0.395
23:02 1026 30.3 856 25.28 9.6 49.4 62 2.8 37 10.06 0.396
23:03 1026 30.3 856 25.28 9.7 49.5 63 3 37.3 10.08 0.397
23:04 1026 30.3 856 25.28 9.7 49.4 63 2.9 37.2 10.04 0.395
23:05 1026 30.3 856 25.28 9.6 49.3 62 2.8 37 10.04 0.395
23:06 1026 30.3 856 25.28 9.6 49.3 62 2.8 37 10.04 0.395
23:07 1026 30.3 856 25.28 9.7 49.4 62 2.8 37 10.05 0.396
23:08 1026 30.3 856 25.28 9.7 49.4 62 2.8 37.1 10.01 0.394
23:09 1026 30.3 855 25.25 9.6 49.3 62 2.7 36.8 10.03 0.395
23:10 1026 30.3 855 25.25 9.6 49.3 62 2.7 36.9 9.99 0.393
23:11 1026 30.3 856 25.28 9.6 49.2 62 2.8 37 9.95 0.392
23:12 1026 30.3 855 25.25 9.5 49.1 62 2.7 36.8 9.9 0.39
23:13 1026 30.3 855 25.25 9.5 49 62 2.6 36.7 9.89 0.389
23:14 1026 30.3 855 25.25 9.5 49 62 2.7 36.8 9.93 0.391
23:15 1026 30.3 856 25.28 9.4 49 63 2.8 37 9.84 0.387
23:16 1026 30.3 856 25.28 9.4 48.9 63 2.6 36.7 9.76 0.384
23:17 1026 30.3 855 25.25 9.4 48.8 62 2.6 36.6 9.78 0.385
23:18 1026 30.3 855 25.25 9.3 48.8 63 2.7 36.8 9.78 0.385
23:19 1026 30.3 855 25.25 9.3 48.8 63 2.7 36.8 9.67 0.381
23:20 1026 30.3 856 25.28 9.3 48.7 63 2.5 36.6 9.69 0.381
23:21 1026 30.3 856 25.28 9.3 48.8 62 2.5 36.6 9.69 0.381
23:22 1026 30.3 856 25.28 9.4 48.8 62 2.5 36.5 9.77 0.385
23:23 1026 30.3 855 25.25 9.4 48.9 62 2.5 36.6 9.76 0.384
23:24 1026 30.3 855 25.25 9.3 48.8 63 2.6 36.6 9.71 0.382
23:25 1026 30.3 856 25.28 9.2 48.6 63 2.5 36.5 9.63 0.379
23:26 1026 30.3 856 25.28 9.2 48.6 63 2.6 36.7 9.61 0.378
23:27 1026 30.3 856 25.28 9.2 48.6 63 2.5 36.5 9.6 0.378
23:28 1026 30.3 855 25.25 9.2 48.6 63 2.5 36.5 9.66 0.38
23:29 1026 30.3 856 25.28 9.3 48.7 62 2.5 36.5 9.64 0.38
23:30 1026 30.3 856 25.28 9.2 48.5 63 2.4 36.4 9.62 0.379
23:31 1026 30.3 856 25.28 9.2 48.5 62 2.4 36.3 9.58 0.377
23:32 1026 30.3 856 25.28 9.2 48.5 63 2.5 36.6 9.55 0.376
23:33 1026 30.3 856 25.28 9.1 48.4 63 2.6 36.6 9.49 0.374
23:34 1026 30.3 856 25.28 9.1 48.3 63 2.4 36.4 9.47 0.373
23:35 1026 30.3 856 25.28 9.1 48.4 63 2.6 36.6 9.46 0.372
23:36 1026 30.3 856 25.28 9 48.3 63 2.5 36.5 9.39 0.37
23:37 1026 30.3 856 25.28 9 48.1 64 2.5 36.5 9.38 0.369
23:38 1026 30.3 856 25.28 9 48.1 63 2.4 36.4 9.34 0.368
23:39 1026 30.3 856 25.28 9 48.2 63 2.4 36.4 9.37 0.369
23:40 1026 30.3 856 25.28 9 48.2 64 2.5 36.6 9.39 0.37
23:41 1026 30.3 856 25.28 9 48.1 64 2.5 36.5 9.38 0.369
23:42 1026 30.3 856 25.28 8.9 48.1 65 2.7 36.8 9.34 0.368
23:43 1026 30.3 856 25.28 8.9 47.9 64 2.5 36.6 9.25 0.364
23:44 1026 30.3 856 25.28 8.8 47.9 65 2.6 36.8 9.2 0.362
23:45 1026 30.3 856 25.28 8.8 47.8 65 2.5 36.5 9.15 0.36
23:46 1026 30.3 856 25.28 8.8 47.9 64 2.5 36.5 9.21 0.363
23:47 1026 30.3 856 25.28 8.8 47.8 65 2.6 36.6 9.19 0.362
23:48 1026 30.3 856 25.28 8.8 47.8 65 2.5 36.6 9.17 0.361
23:49 1026 30.3 856 25.28 8.8 47.8 65 2.6 36.6 9.18 0.361
23:50 1026 30.3 856 25.28 8.8 47.8 65 2.6 36.6 9.14 0.36
23:51 1026 30.3 856 25.28 8.7 47.7 65 2.6 36.6 9.08 0.357
23:52 1026 30.3 856 25.28 8.7 47.6 65 2.5 36.5 9.13 0.359
23:53 1027 30.33 856 25.28 8.7 47.6 65 2.6 36.6 9.07 0.357
23:54 1026 30.3 856 25.28 8.7 47.6 66 2.6 36.7 9.06 0.357
23:55 1026 30.3 856 25.28 8.6 47.6 65 2.6 36.6 9.06 0.357
23:56 1026 30.3 856 25.28 8.6 47.5 66 2.6 36.7 9.02 0.355
23:57 1026 30.3 856 25.28 8.5 47.3 66 2.6 36.7 8.93 0.352
23:58 1026 30.3 856 25.28 8.5 47.2 66 2.6 36.6 8.87 0.349
23:59 1026 30.3 856 25.28 8.4 47.2 67 2.6 36.7 8.83 0.348
24:00 1026 30.3 856 25.28 8.4 47.2 66 2.6 36.6 8.84 0.348